Time,TemperatureF,DewpointF,PressureIn,WindDirection,WindDirectionDegrees,WindSpeedMPH,WindSpeedGustMPH,Humidity,HourlyPrecipIn,Conditions,Clouds,dailyrainin,SoftwareType,DateUTC
2013-05-01 06:38:00,23.9,19.5,30.07,ENE,68,0.0,0.0,83,0.06,RA,,0.06,WeatherDisplay:10.37,2013-05-01 13:38:00,
2013-05-01 06:43:00,24.1,19.7,30.08,NNW,338,0.0,0.0,83,0.06,CLR,,0.06,WeatherDisplay:10.37,2013-05-01 13:43:00,
2013-05-01 06:48:00,24.6,20.2,30.08,NW,315,0.0,0.0,83,0.06,CLR,,0.06,WeatherDisplay:10.37,2013-05-01 13:48:00,
2013-05-01 06:53:00,26.4,21.7,30.08,West,270,0.0,0.0,82,0.06,CLR,,0.06,WeatherDisplay:10.37,2013-05-01 13:53:00,
2013-05-01 06:54:00,27.0,22.2,30.08,NNW,338,0.0,0.0,82,0.06,CLR,,0.06,WeatherDisplay:10.37,2013-05-01 13:54:00,
2013-05-01 06:58:00,27.9,22.2,30.08,NW,315,0.0,0.0,79,0.06,CLR,,0.06,WeatherDisplay:10.37,2013-05-01 13:58:00,
2013-05-01 06:59:00,27.9,22.2,30.08,NW,315,0.0,0.0,79,0.06,CLR,,0.06,WeatherDisplay:10.37,2013-05-01 13:59:00,
2013-05-01 07:03:00,28.8,22.8,30.09,North,0,0.0,0.0,78,0.06,CLR,,0.06,WeatherDisplay:10.37,2013-05-01 14:03:00,
2013-05-01 07:04:00,29.3,23.0,30.09,WNW,292,0.0,0.0,77,0.06,CLR,,0.06,WeatherDisplay:10.37,2013-05-01 14:04:00,
2013-05-01 07:05:00,29.3,23.0,30.09,WNW,292,0.0,0.0,77,0.06,CLR,,0.06,WeatherDisplay:10.37,2013-05-01 14:05:00,
2013-05-01 07:08:00,30.6,23.6,30.09,NE,45,0.0,0.0,75,0.06,CLR,,0.06,WeatherDisplay:10.37,2013-05-01 14:08:00,
2013-05-01 07:09:00,30.6,23.6,30.09,NE,45,0.0,0.0,75,0.06,CLR,,0.06,WeatherDisplay:10.37,2013-05-01 14:09:00,
2013-05-01 07:10:00,30.9,23.6,30.09,NE,45,0.0,0.0,74,0.06,CLR,,0.06,WeatherDisplay:10.37,2013-05-01 14:10:00,
2013-05-01 07:13:00,31.3,24.0,30.09,WNW,292,0.0,0.0,74,0.06,CLR,,0.06,WeatherDisplay:10.37,2013-05-01 14:13:00,
2013-05-01 07:14:00,31.5,23.8,30.09,WNW,292,0.0,0.0,73,0.06,CLR,,0.06,WeatherDisplay:10.37,2013-05-01 14:14:00,
2013-05-01 07:15:00,31.5,23.8,30.09,NE,45,0.0,0.0,73,0.06,CLR,,0.06,WeatherDisplay:10.37,2013-05-01 14:15:00,
2013-05-01 07:18:00,32.0,24.0,30.09,North,0,0.0,0.0,72,0.06,CLR,,0.06,WeatherDisplay:10.37,2013-05-01 14:18:00,
2013-05-01 07:19:00,32.0,24.0,30.09,North,0,0.0,0.0,72,0.06,CLR,,0.06,WeatherDisplay:10.37,2013-05-01 14:19:00,
2013-05-01 07:20:00,32.2,23.8,30.09,North,0,0.0,0.0,71,0.06,CLR,,0.06,WeatherDisplay:10.37,2013-05-01 14:20:00,
2013-05-01 07:23:00,32.7,24.3,30.09,NNW,338,0.0,0.0,71,0.03,CLR,,0.06,WeatherDisplay:10.37,2013-05-01 14:23:00,
2013-05-01 07:25:00,33.3,24.5,30.09,WSW,248,0.1,0.0,70,0.03,CLR,,0.06,WeatherDisplay:10.37,2013-05-01 14:25:00,
2013-05-01 07:28:00,34.7,24.9,30.09,ENE,68,0.1,0.0,67,0.00,CLR,,0.06,WeatherDisplay:10.37,2013-05-01 14:28:00,
2013-05-01 07:30:00,34.9,24.7,30.09,NNW,338,0.0,2.0,66,0.00,CLR,CLR,0.05,WeatherDisplay:10.37,2013-05-01 14:30:00,
2013-05-01 07:31:00,35.4,24.8,30.09,NNE,22,0.1,0.0,65,0.00,CLR,,0.06,WeatherDisplay:10.37,2013-05-01 14:31:00,
2013-05-01 07:34:00,36.3,24.9,30.09,West,270,0.1,0.0,63,0.00,CLR,,0.06,WeatherDisplay:10.37,2013-05-01 14:34:00,
2013-05-01 07:35:00,36.3,24.9,30.09,West,270,0.1,0.0,63,0.00,CLR,,0.06,WeatherDisplay:10.37,2013-05-01 14:35:00,
2013-05-01 07:36:00,37.0,25.2,30.09,WNW,292,0.0,0.0,62,0.00,CLR,,0.06,WeatherDisplay:10.37,2013-05-01 14:36:00,
2013-05-01 07:40:00,38.0,25.4,30.09,NE,55,0.0,0.0,60,0.00,CLR,CLR,0.05,WeatherDisplay:10.37,2013-05-01 14:40:00,
2013-05-01 07:41:00,38.3,25.2,30.09,NNE,22,0.1,1.1,59,0.00,CLR,,0.06,WeatherDisplay:10.37,2013-05-01 14:41:00,
2013-05-01 07:45:00,39.0,25.5,30.11,NE,45,0.1,0.0,58,0.00,CLR,,0.06,WeatherDisplay:10.37,2013-05-01 14:45:00,
2013-05-01 07:46:00,39.2,25.2,30.11,East,90,0.1,0.0,57,0.00,CLR,,0.06,WeatherDisplay:10.37,2013-05-01 14:46:00,
2013-05-01 07:50:00,41.4,27.3,30.11,NW,315,0.1,0.0,57,0.00,CLR,,0.06,WeatherDisplay:10.37,2013-05-01 14:50:00,
2013-05-01 07:51:00,41.4,27.3,30.11,NW,315,0.1,0.0,57,0.00,CLR,,0.06,WeatherDisplay:10.37,2013-05-01 14:51:00,
2013-05-01 07:55:00,41.5,26.1,30.11,WSW,248,0.2,2.3,54,0.00,CLR,,0.06,WeatherDisplay:10.37,2013-05-01 14:55:00,
2013-05-01 07:56:00,41.2,25.3,30.11,WSW,248,0.2,2.3,53,0.00,CLR,,0.06,WeatherDisplay:10.37,2013-05-01 14:56:00,
2013-05-01 07:57:00,41.2,25.3,30.11,West,270,0.3,3.2,53,0.00,CLR,,0.06,WeatherDisplay:10.37,2013-05-01 14:57:00,
2013-05-01 08:00:00,40.8,25.0,30.11,NW,315,0.7,2.3,53,0.00,CLR,,0.06,WeatherDisplay:10.37,2013-05-01 15:00:00,
2013-05-01 08:01:00,40.8,25.0,30.11,NW,315,0.7,2.3,53,0.00,CLR,,0.06,WeatherDisplay:10.37,2013-05-01 15:01:00,
2013-05-01 08:02:00,40.6,24.4,30.11,ESE,112,0.8,1.1,52,0.00,CLR,,0.06,WeatherDisplay:10.37,2013-05-01 15:02:00,
2013-05-01 08:03:00,40.6,24.4,30.11,ESE,112,0.8,0.0,52,0.00,CLR,,0.06,WeatherDisplay:10.37,2013-05-01 15:03:00,
2013-05-01 08:05:00,40.1,23.4,30.11,West,270,0.8,1.3,51,0.00,CLR,,0.06,WeatherDisplay:10.37,2013-05-01 15:05:00,
2013-05-01 08:06:00,40.1,23.9,30.11,WSW,248,0.7,1.1,52,0.00,CLR,,0.06,WeatherDisplay:10.37,2013-05-01 15:06:00,
2013-05-01 08:07:00,40.1,23.9,30.11,WSW,248,0.7,0.0,52,0.00,CLR,,0.06,WeatherDisplay:10.37,2013-05-01 15:07:00,
2013-05-01 08:08:00,40.5,25.1,30.11,NE,45,0.3,0.0,54,0.03,RA,,0.08,WeatherDisplay:10.37,2013-05-01 15:08:00,
2013-05-01 08:11:00,40.8,25.9,30.11,SE,135,0.3,0.0,55,0.03,RA,,0.08,WeatherDisplay:10.37,2013-05-01 15:11:00,
2013-05-01 08:12:00,41.2,26.2,30.11,NE,45,0.2,0.0,55,0.03,RA,,0.08,WeatherDisplay:10.37,2013-05-01 15:12:00,
2013-05-01 08:13:00,41.2,26.2,30.11,NE,45,0.2,0.0,55,0.03,RA,,0.08,WeatherDisplay:10.37,2013-05-01 15:13:00,
2013-05-01 08:16:00,40.6,24.8,30.11,WSW,248,0.2,0.0,53,0.03,RA,,0.08,WeatherDisplay:10.37,2013-05-01 15:16:00,
2013-05-01 08:18:00,40.6,24.4,30.11,NNE,22,0.2,0.0,52,0.03,RA,,0.08,WeatherDisplay:10.37,2013-05-01 15:18:00,
2013-05-01 08:21:00,41.4,25.5,30.11,ENE,68,0.2,0.0,53,0.03,CLR,,0.08,WeatherDisplay:10.37,2013-05-01 15:21:00,
2013-05-01 08:23:00,41.7,26.3,30.11,SSE,158,0.2,2.3,54,0.03,CLR,,0.08,WeatherDisplay:10.37,2013-05-01 15:23:00,
2013-05-01 08:24:00,41.9,26.4,30.11,SW,225,0.1,2.3,54,0.03,CLR,,0.08,WeatherDisplay:10.37,2013-05-01 15:24:00,
2013-05-01 08:26:00,41.9,26.9,30.11,WNW,292,0.1,0.0,55,0.03,CLR,,0.08,WeatherDisplay:10.37,2013-05-01 15:26:00,
2013-05-01 08:28:00,41.9,26.4,30.11,ENE,68,0.1,0.0,54,0.03,CLR,,0.08,WeatherDisplay:10.37,2013-05-01 15:28:00,
2013-05-01 08:29:00,41.9,26.4,30.11,ENE,68,0.1,0.0,54,0.03,CLR,,0.08,WeatherDisplay:10.37,2013-05-01 15:29:00,
2013-05-01 08:31:00,41.9,26.4,30.11,NNW,338,0.3,1.1,54,0.03,CLR,,0.08,WeatherDisplay:10.37,2013-05-01 15:31:00,
2013-05-01 08:32:00,42.1,26.6,30.11,North,0,0.3,1.1,54,0.03,CLR,,0.08,WeatherDisplay:10.37,2013-05-01 15:32:00,
2013-05-01 08:33:00,42.1,26.6,30.11,North,0,0.3,0.0,54,0.03,CLR,,0.08,WeatherDisplay:10.37,2013-05-01 15:33:00,
2013-05-01 08:34:00,41.9,26.0,30.11,NW,315,0.3,2.3,53,0.03,CLR,,0.08,WeatherDisplay:10.37,2013-05-01 15:34:00,
2013-05-01 08:37:00,42.4,27.4,30.11,NW,315,0.3,0.0,55,0.03,CLR,,0.08,WeatherDisplay:10.37,2013-05-01 15:37:00,
2013-05-01 08:38:00,42.1,25.7,30.11,SSE,158,0.3,0.0,52,0.03,CLR,,0.08,WeatherDisplay:10.37,2013-05-01 15:38:00,
2013-05-01 08:39:00,42.1,25.7,30.11,SSE,158,0.3,0.0,52,0.03,CLR,,0.08,WeatherDisplay:10.37,2013-05-01 15:39:00,
2013-05-01 08:42:00,41.7,24.9,30.11,NW,315,0.3,1.1,51,0.03,CLR,,0.08,WeatherDisplay:10.37,2013-05-01 15:42:00,
2013-05-01 08:43:00,41.7,24.9,30.11,NW,315,0.3,1.1,51,0.03,CLR,,0.08,WeatherDisplay:10.37,2013-05-01 15:43:00,
2013-05-01 08:44:00,42.3,26.3,30.11,NW,315,0.3,1.1,53,0.03,CLR,,0.08,WeatherDisplay:10.37,2013-05-01 15:44:00,
2013-05-01 08:47:00,41.7,23.5,30.11,WSW,248,0.3,0.0,48,0.03,CLR,,0.08,WeatherDisplay:10.37,2013-05-01 15:47:00,
2013-05-01 08:49:00,41.5,23.8,30.11,NW,315,0.3,1.3,49,0.03,CLR,,0.08,WeatherDisplay:10.37,2013-05-01 15:49:00,
2013-05-01 08:52:00,41.7,23.9,30.11,NW,315,0.2,1.1,49,0.03,CLR,,0.08,WeatherDisplay:10.37,2013-05-01 15:52:00,
2013-05-01 08:54:00,42.6,26.7,30.11,SE,135,0.3,3.5,53,0.03,CLR,,0.08,WeatherDisplay:10.37,2013-05-01 15:54:00,
2013-05-01 08:57:00,42.8,25.4,30.11,SW,225,0.3,2.6,50,0.03,CLR,,0.08,WeatherDisplay:10.37,2013-05-01 15:57:00,
2013-05-01 08:58:00,43.2,25.3,30.11,East,90,0.6,2.3,49,0.03,CLR,,0.08,WeatherDisplay:10.37,2013-05-01 15:58:00,
2013-05-01 08:59:00,43.2,25.3,30.11,East,90,0.6,0.0,49,0.03,CLR,,0.08,WeatherDisplay:10.37,2013-05-01 15:59:00,
2013-05-01 09:00:00,43.2,25.3,30.11,SE,129,0.0,3.0,49,0.00,CLR,CLR,0.08,WeatherDisplay:10.37,2013-05-01 16:00:00,
2013-05-01 09:02:00,42.4,23.6,30.12,ESE,112,0.6,0.0,47,0.03,CLR,,0.08,WeatherDisplay:10.37,2013-05-01 16:02:00,
2013-05-01 09:03:00,42.4,23.6,30.12,ESE,112,0.6,0.0,47,0.03,CLR,,0.08,WeatherDisplay:10.37,2013-05-01 16:03:00,
2013-05-01 09:04:00,42.6,23.3,30.12,NW,315,0.5,0.0,46,0.03,CLR,,0.08,WeatherDisplay:10.37,2013-05-01 16:04:00,
2013-05-01 09:05:00,42.6,23.3,30.12,NW,315,0.5,0.0,46,0.03,CLR,,0.08,WeatherDisplay:10.37,2013-05-01 16:05:00,
2013-05-01 09:07:00,42.6,23.3,30.12,NNW,338,0.3,0.0,46,0.03,CLR,,0.08,WeatherDisplay:10.37,2013-05-01 16:07:00,
2013-05-01 09:08:00,43.2,24.3,30.12,SW,225,0.1,1.1,47,0.00,CLR,,0.08,WeatherDisplay:10.37,2013-05-01 16:08:00,
2013-05-01 09:09:00,43.2,24.3,30.12,SW,225,0.1,1.1,47,0.00,CLR,,0.08,WeatherDisplay:10.37,2013-05-01 16:09:00,
2013-05-01 09:10:00,43.3,23.9,30.12,SW,225,0.5,2.3,46,0.00,CLR,,0.08,WeatherDisplay:10.37,2013-05-01 16:10:00,
2013-05-01 09:12:00,43.7,24.8,30.12,WSW,248,0.5,2.3,47,0.00,CLR,,0.08,WeatherDisplay:10.37,2013-05-01 16:12:00,
2013-05-01 09:13:00,43.7,24.8,30.12,WSW,248,0.5,0.0,47,0.00,CLR,,0.08,WeatherDisplay:10.37,2013-05-01 16:13:00,
2013-05-01 09:15:00,43.7,23.2,30.12,NNW,338,0.5,0.0,44,0.00,CLR,,0.08,WeatherDisplay:10.37,2013-05-01 16:15:00,
2013-05-01 09:18:00,43.7,23.7,30.12,West,270,0.6,2.1,45,0.00,CLR,,0.08,WeatherDisplay:10.37,2013-05-01 16:18:00,
2013-05-01 09:20:00,43.7,23.7,30.12,NE,45,0.5,2.3,45,0.00,CLR,,0.08,WeatherDisplay:10.37,2013-05-01 16:20:00,
2013-05-01 09:21:00,43.7,23.7,30.12,NE,45,0.5,2.3,45,0.00,CLR,,0.08,WeatherDisplay:10.37,2013-05-01 16:21:00,
2013-05-01 09:23:00,43.7,23.7,30.11,SE,135,0.2,0.0,45,0.00,CLR,,0.08,WeatherDisplay:10.37,2013-05-01 16:23:00,
2013-05-01 09:25:00,44.4,23.8,30.11,West,270,0.6,3.5,44,0.00,CLR,,0.08,WeatherDisplay:10.37,2013-05-01 16:25:00,
2013-05-01 09:26:00,44.4,22.7,30.11,NW,315,0.7,3.5,42,0.00,CLR,,0.08,WeatherDisplay:10.37,2013-05-01 16:26:00,
2013-05-01 09:28:00,44.8,23.6,30.11,West,270,0.7,0.0,43,0.00,CLR,,0.08,WeatherDisplay:10.37,2013-05-01 16:28:00,
2013-05-01 09:30:00,45.1,23.4,30.11,WNW,292,0.8,3.5,42,0.00,CLR,,0.08,WeatherDisplay:10.37,2013-05-01 16:30:00,
2013-05-01 09:31:00,45.1,23.4,30.11,WNW,292,0.8,3.6,42,0.00,CLR,,0.08,WeatherDisplay:10.37,2013-05-01 16:31:00,
2013-05-01 09:33:00,45.7,23.3,30.11,WSW,248,1.4,4.6,41,0.00,CLR,,0.08,WeatherDisplay:10.37,2013-05-01 16:33:00,
2013-05-01 09:35:00,45.3,22.4,30.11,NNE,22,1.1,0.0,40,0.00,CLR,,0.08,WeatherDisplay:10.37,2013-05-01 16:35:00,
2013-05-01 09:36:00,45.5,22.5,30.11,SSW,202,1.1,3.5,40,0.00,CLR,,0.08,WeatherDisplay:10.37,2013-05-01 16:36:00,
2013-05-01 09:38:00,46.0,23.6,30.11,WNW,292,1.3,3.5,41,0.00,CLR,,0.08,WeatherDisplay:10.37,2013-05-01 16:38:00,
2013-05-01 09:40:00,41.5,16.5,30.18,NE,42,0.0,0.0,36,0.00,CLR,CLR,0.11,WeatherDisplay:10.37,2013-05-01 16:40:00,
2013-05-01 09:41:00,45.9,22.9,30.11,West,270,1.8,3.5,40,0.00,CLR,,0.08,WeatherDisplay:10.37,2013-05-01 16:41:00,
2013-05-01 09:42:00,46.8,23.7,30.12,West,270,2.1,4.6,40,0.00,CLR,,0.08,WeatherDisplay:10.37,2013-05-01 16:42:00,
2013-05-01 09:43:00,46.8,23.7,30.12,West,270,2.1,4.6,40,0.00,CLR,,0.08,WeatherDisplay:10.37,2013-05-01 16:43:00,
2013-05-01 09:45:00,41.9,17.5,30.18,ENE,62,0.0,0.0,37,0.00,CLR,CLR,0.11,WeatherDisplay:10.37,2013-05-01 16:45:00,
2013-05-01 09:46:00,47.1,24.0,30.12,NNE,22,2.4,3.5,40,0.00,CLR,,0.08,WeatherDisplay:10.37,2013-05-01 16:46:00,
2013-05-01 09:47:00,47.1,24.0,30.12,NNE,22,2.4,2.4,40,0.00,CLR,,0.08,WeatherDisplay:10.37,2013-05-01 16:47:00,
2013-05-01 09:48:00,47.1,24.6,30.12,NNE,22,2.2,2.3,41,0.00,CLR,,0.08,WeatherDisplay:10.37,2013-05-01 16:48:00,
2013-05-01 09:49:00,47.1,24.6,30.12,NNE,22,2.2,2.3,41,0.00,CLR,,0.08,WeatherDisplay:10.37,2013-05-01 16:49:00,
2013-05-01 09:50:00,41.9,17.5,30.18,North,9,0.0,0.0,37,0.00,CLR,CLR,0.11,WeatherDisplay:10.37,2013-05-01 16:50:00,
2013-05-01 09:51:00,46.9,23.8,30.12,WNW,292,2.3,3.5,40,0.00,CLR,,0.08,WeatherDisplay:10.37,2013-05-01 16:51:00,
2013-05-01 09:52:00,47.3,23.6,30.12,WSW,248,2.0,3.5,39,0.00,CLR,,0.08,WeatherDisplay:10.37,2013-05-01 16:52:00,
2013-05-01 09:53:00,47.3,23.6,30.12,WSW,248,2.0,2.0,39,0.00,CLR,,0.08,WeatherDisplay:10.37,2013-05-01 16:53:00,
2013-05-01 09:54:00,46.8,21.8,30.12,SSE,158,1.3,1.3,37,0.00,CLR,,0.08,WeatherDisplay:10.37,2013-05-01 16:54:00,
2013-05-01 09:55:00,41.4,20.0,30.18,WNW,287,0.0,0.0,42,0.00,CLR,CLR,0.11,WeatherDisplay:10.37,2013-05-01 16:55:00,
2013-05-01 09:56:00,46.6,21.7,30.12,NE,45,1.1,1.1,37,0.00,CLR,,0.08,WeatherDisplay:10.37,2013-05-01 16:56:00,
2013-05-01 09:57:00,46.6,21.7,30.12,NE,45,1.1,0.0,37,0.00,CLR,,0.08,WeatherDisplay:10.37,2013-05-01 16:57:00,
2013-05-01 09:58:00,46.6,21.0,30.12,ESE,112,0.9,1.1,36,0.00,CLR,,0.08,WeatherDisplay:10.37,2013-05-01 16:58:00,
2013-05-01 09:59:00,46.6,21.0,30.12,ESE,112,0.9,1.1,36,0.00,CLR,,0.08,WeatherDisplay:10.37,2013-05-01 16:59:00,
2013-05-01 10:00:00,41.0,20.7,30.18,WSW,254,0.0,0.0,44,0.00,CLR,CLR,0.11,WeatherDisplay:10.37,2013-05-01 17:00:00,
2013-05-01 10:02:00,46.8,20.5,30.12,NNW,338,0.8,3.2,35,0.00,CLR,,0.08,WeatherDisplay:10.37,2013-05-01 17:02:00,
2013-05-01 10:03:00,46.8,20.5,30.12,NNW,338,0.8,3.5,35,0.00,CLR,,0.08,WeatherDisplay:10.37,2013-05-01 17:03:00,
2013-05-01 10:04:00,47.3,21.0,30.12,West,270,1.0,3.5,35,0.00,CLR,,0.08,WeatherDisplay:10.37,2013-05-01 17:04:00,
2013-05-01 10:05:00,41.0,20.2,30.18,North,356,0.0,0.0,43,0.00,RA,RA,0.00,WeatherDisplay:10.37,2013-05-01 17:05:00,
2013-05-01 10:07:00,47.1,20.2,30.12,ENE,68,1.1,1.1,34,0.00,CLR,,0.08,WeatherDisplay:10.37,2013-05-01 17:07:00,
2013-05-01 10:09:00,47.1,20.2,30.12,NE,45,1.1,0.0,34,0.00,CLR,,0.08,WeatherDisplay:10.37,2013-05-01 17:09:00,
2013-05-01 10:10:00,41.0,20.2,30.18,NNE,22,0.0,0.0,43,0.00,RA,RA,0.00,WeatherDisplay:10.37,2013-05-01 17:10:00,
2013-05-01 10:12:00,46.8,19.1,30.12,West,270,1.1,2.3,33,0.00,CLR,,0.08,WeatherDisplay:10.37,2013-05-01 17:12:00,
2013-05-01 10:14:00,46.8,19.8,30.12,NW,315,1.1,3.5,34,0.00,CLR,,0.08,WeatherDisplay:10.37,2013-05-01 17:14:00,
2013-05-01 10:15:00,46.8,19.8,30.12,NW,315,1.1,3.5,34,0.00,CLR,,0.08,WeatherDisplay:10.37,2013-05-01 17:15:00,
2013-05-01 10:17:00,47.5,19.8,30.12,NE,45,1.1,1.1,33,0.00,CLR,,0.08,WeatherDisplay:10.37,2013-05-01 17:17:00,
2013-05-01 10:18:00,47.1,19.5,30.12,NW,315,1.4,1.4,33,0.00,CLR,,0.08,WeatherDisplay:10.37,2013-05-01 17:18:00,
2013-05-01 10:19:00,47.1,19.5,30.12,NW,315,1.4,0.0,33,0.00,CLR,,0.08,WeatherDisplay:10.37,2013-05-01 17:19:00,
2013-05-01 10:20:00,47.1,19.4,30.12,NW,322,1.0,3.0,33,0.00,CLR,CLR,0.08,WeatherDisplay:10.37,2013-05-01 17:20:00,
2013-05-01 10:22:00,46.9,20.0,30.12,NE,45,1.5,5.8,34,0.00,CLR,,0.08,WeatherDisplay:10.37,2013-05-01 17:22:00,
2013-05-01 10:23:00,46.9,20.0,30.12,NE,45,1.5,5.8,34,0.00,CLR,,0.08,WeatherDisplay:10.37,2013-05-01 17:23:00,
2013-05-01 10:24:00,47.5,21.2,30.12,NW,315,1.4,5.8,35,0.00,CLR,,0.08,WeatherDisplay:10.37,2013-05-01 17:24:00,
2013-05-01 10:25:00,47.5,21.2,30.12,NW,315,1.4,2.3,35,0.00,CLR,,0.08,WeatherDisplay:10.37,2013-05-01 17:25:00,
2013-05-01 10:27:00,47.8,22.8,30.12,WSW,248,1.1,2.3,37,0.00,CLR,,0.08,WeatherDisplay:10.37,2013-05-01 17:27:00,
2013-05-01 10:28:00,48.6,22.1,30.12,West,270,1.5,2.3,35,0.00,CLR,,0.08,WeatherDisplay:10.37,2013-05-01 17:28:00,
2013-05-01 10:29:00,48.6,22.1,30.12,West,270,1.5,2.3,35,0.00,CLR,,0.08,WeatherDisplay:10.37,2013-05-01 17:29:00,
2013-05-01 10:30:00,49.1,24.6,30.12,WSW,248,1.5,2.3,38,0.00,CLR,,0.08,WeatherDisplay:10.37,2013-05-01 17:30:00,
2013-05-01 10:32:00,48.7,24.2,30.12,SW,225,1.8,2.3,38,0.00,CLR,,0.08,WeatherDisplay:10.37,2013-05-01 17:32:00,
2013-05-01 10:33:00,48.7,24.2,30.12,SW,225,1.8,2.3,38,0.00,CLR,,0.08,WeatherDisplay:10.37,2013-05-01 17:33:00,
2013-05-01 10:35:00,48.9,23.1,30.12,NNE,22,1.3,2.3,36,0.00,CLR,,0.08,WeatherDisplay:10.37,2013-05-01 17:35:00,
2013-05-01 10:36:00,48.9,23.1,30.12,NNE,22,1.3,0.0,36,0.00,CLR,,0.08,WeatherDisplay:10.37,2013-05-01 17:36:00,
2013-05-01 10:37:00,49.1,22.6,30.12,SW,225,1.1,1.1,35,0.00,CLR,,0.08,WeatherDisplay:10.37,2013-05-01 17:37:00,
2013-05-01 10:39:00,48.9,21.0,30.12,NW,315,0.7,1.1,33,0.00,CLR,,0.08,WeatherDisplay:10.37,2013-05-01 17:39:00,
2013-05-01 10:40:00,39.6,19.9,30.17,ENE,76,0.0,0.0,45,0.00,CLR,CLR,0.00,WeatherDisplay:10.37,2013-05-01 17:40:00,
2013-05-01 10:41:00,48.6,21.4,30.12,South,180,0.7,0.0,34,0.00,CLR,,0.08,WeatherDisplay:10.37,2013-05-01 17:41:00,
2013-05-01 10:43:00,48.6,20.7,30.12,ENE,68,0.5,0.0,33,0.00,CLR,,0.08,WeatherDisplay:10.37,2013-05-01 17:43:00,
2013-05-01 10:44:00,48.6,20.7,30.12,West,270,0.3,0.0,33,0.00,CLR,,0.08,WeatherDisplay:10.37,2013-05-01 17:44:00,
2013-05-01 10:45:00,39.0,20.0,30.17,NNE,18,0.0,0.0,46,0.00,CLR,CLR,0.00,WeatherDisplay:10.37,2013-05-01 17:45:00,
2013-05-01 10:46:00,48.6,20.7,30.12,West,270,0.3,0.0,33,0.00,CLR,,0.08,WeatherDisplay:10.37,2013-05-01 17:46:00,
2013-05-01 10:48:00,49.8,22.5,30.12,North,0,1.1,6.9,34,0.00,CLR,,0.08,WeatherDisplay:10.37,2013-05-01 17:48:00,
2013-05-01 10:49:00,49.8,22.5,30.12,North,0,1.1,2.3,34,0.00,CLR,,0.08,WeatherDisplay:10.37,2013-05-01 17:49:00,
2013-05-01 10:50:00,38.7,20.1,30.17,North,11,0.0,0.0,47,0.00,CLR,CLR,0.00,WeatherDisplay:10.37,2013-05-01 17:50:00,
2013-05-01 10:51:00,50.2,22.9,30.12,West,270,1.4,4.6,34,0.00,CLR,,0.08,WeatherDisplay:10.37,2013-05-01 17:51:00,
2013-05-01 10:52:00,50.5,22.5,30.12,NW,315,2.0,4.6,33,0.00,CLR,,0.08,WeatherDisplay:10.37,2013-05-01 17:52:00,
2013-05-01 10:54:00,50.5,21.7,30.12,West,270,2.5,4.9,32,0.00,CLR,,0.08,WeatherDisplay:10.37,2013-05-01 17:54:00,
2013-05-01 10:55:00,38.5,20.0,30.17,NE,43,0.0,0.0,47,0.00,CLR,CLR,0.00,WeatherDisplay:10.37,2013-05-01 17:55:00,
2013-05-01 10:56:00,50.4,20.8,30.12,South,180,3.5,4.6,31,0.00,CLR,,0.08,WeatherDisplay:10.37,2013-05-01 17:56:00,
2013-05-01 10:57:00,50.4,20.8,30.12,South,180,3.5,4.6,31,0.00,CLR,,0.08,WeatherDisplay:10.37,2013-05-01 17:57:00,
2013-05-01 10:59:00,50.4,20.8,30.12,WSW,248,3.0,3.0,31,0.00,CLR,,0.08,WeatherDisplay:10.37,2013-05-01 17:59:00,
2013-05-01 11:00:00,38.3,19.8,30.17,NNE,31,0.0,0.0,47,0.00,CLR,CLR,0.00,WeatherDisplay:10.37,2013-05-01 18:00:00,
2013-05-01 11:01:00,50.4,20.8,30.12,NNE,22,2.6,0.0,31,0.00,CLR,,0.08,WeatherDisplay:10.37,2013-05-01 18:01:00,
2013-05-01 11:02:00,50.4,20.1,30.12,SE,135,2.3,0.0,30,0.00,CLR,,0.08,WeatherDisplay:10.37,2013-05-01 18:02:00,
2013-05-01 11:04:00,50.7,21.1,30.12,SSE,158,2.1,2.1,31,0.00,CLR,,0.08,WeatherDisplay:10.37,2013-05-01 18:04:00,
2013-05-01 11:05:00,50.7,21.1,30.12,SSE,158,2.1,2.1,31,0.00,CLR,,0.08,WeatherDisplay:10.37,2013-05-01 18:05:00,
2013-05-01 11:07:00,50.4,20.1,30.12,SW,225,1.6,2.3,30,0.00,CLR,,0.08,WeatherDisplay:10.37,2013-05-01 18:07:00,
2013-05-01 11:08:00,50.2,19.1,30.12,WSW,248,0.9,2.3,29,0.00,CLR,,0.08,WeatherDisplay:10.37,2013-05-01 18:08:00,
2013-05-01 11:09:00,50.2,19.1,30.12,WSW,248,0.9,0.0,29,0.00,CLR,,0.08,WeatherDisplay:10.37,2013-05-01 18:09:00,
2013-05-01 11:10:00,50.4,20.1,30.12,WNW,292,0.8,2.3,30,0.00,CLR,,0.08,WeatherDisplay:10.37,2013-05-01 18:10:00,
2013-05-01 11:12:00,50.5,19.4,30.12,WSW,248,0.9,2.3,29,0.00,CLR,,0.08,WeatherDisplay:10.37,2013-05-01 18:12:00,
2013-05-01 11:13:00,50.5,19.4,30.12,WSW,248,0.9,1.5,29,0.00,CLR,,0.08,WeatherDisplay:10.37,2013-05-01 18:13:00,
2013-05-01 11:15:00,50.5,19.4,30.12,ESE,112,0.6,0.0,29,0.00,CLR,,0.08,WeatherDisplay:10.37,2013-05-01 18:15:00,
2013-05-01 11:18:00,50.9,20.5,30.12,WSW,248,1.1,5.8,30,0.00,CLR,,0.08,WeatherDisplay:10.37,2013-05-01 18:18:00,
2013-05-01 11:20:00,50.7,19.6,30.12,ENE,68,1.1,1.1,29,0.00,CLR,,0.08,WeatherDisplay:10.37,2013-05-01 18:20:00,
2013-05-01 11:23:00,51.1,21.5,30.13,NNE,22,1.0,0.0,31,0.00,CLR,,0.08,WeatherDisplay:10.37,2013-05-01 18:23:00,
2013-05-01 11:25:00,51.3,20.0,30.13,SE,135,0.9,0.0,29,0.00,CLR,,0.08,WeatherDisplay:10.37,2013-05-01 18:25:00,
2013-05-01 11:26:00,51.1,19.1,30.13,SE,135,0.7,2.6,28,0.00,CLR,,0.08,WeatherDisplay:10.37,2013-05-01 18:26:00,
2013-05-01 11:28:00,51.6,19.5,30.13,South,180,0.7,2.3,28,0.00,CLR,,0.08,WeatherDisplay:10.37,2013-05-01 18:28:00,
2013-05-01 11:30:00,37.6,19.6,30.17,North,0,0.0,0.0,48,0.00,CLR,CLR,0.00,WeatherDisplay:10.37,2013-05-01 18:30:00,
2013-05-01 11:31:00,52.3,19.3,30.13,NNW,338,1.1,8.1,27,0.00,CLR,,0.08,WeatherDisplay:10.37,2013-05-01 18:31:00,
2013-05-01 11:33:00,52.3,20.2,30.13,WNW,292,2.1,4.9,28,0.00,CLR,,0.08,WeatherDisplay:10.37,2013-05-01 18:33:00,
2013-05-01 11:35:00,37.6,20.6,30.17,NE,56,0.0,0.0,50,0.00,CLR,CLR,0.00,WeatherDisplay:10.37,2013-05-01 18:35:00,
2013-05-01 11:36:00,52.3,16.6,30.13,ENE,68,3.0,3.5,24,0.00,CLR,,0.08,WeatherDisplay:10.37,2013-05-01 18:36:00,
2013-05-01 11:37:00,52.3,16.6,30.13,ENE,68,3.0,0.0,24,0.00,CLR,,0.08,WeatherDisplay:10.37,2013-05-01 18:37:00,
2013-05-01 11:38:00,52.0,16.3,30.13,WSW,248,3.1,3.5,24,0.00,CLR,,0.08,WeatherDisplay:10.37,2013-05-01 18:38:00,
2013-05-01 11:40:00,37.4,20.4,30.17,NE,44,0.0,0.0,50,0.00,CLR,CLR,0.00,WeatherDisplay:10.37,2013-05-01 18:40:00,
2013-05-01 11:41:00,52.2,16.4,30.13,WNW,292,3.2,5.8,24,0.00,CLR,,0.08,WeatherDisplay:10.37,2013-05-01 18:41:00,
2013-05-01 11:42:00,52.0,16.3,30.12,North,0,2.2,5.8,24,0.00,CLR,,0.08,WeatherDisplay:10.37,2013-05-01 18:42:00,
2013-05-01 11:44:00,52.5,15.7,30.12,ENE,68,1.7,1.7,23,0.00,CLR,,0.08,WeatherDisplay:10.37,2013-05-01 18:44:00,
2013-05-01 11:45:00,37.2,21.2,30.17,North,349,0.0,0.0,52,0.00,CLR,CLR,0.00,WeatherDisplay:10.37,2013-05-01 18:45:00,
2013-05-01 11:46:00,52.3,15.6,30.12,NNW,338,1.1,1.3,23,0.00,CLR,,0.08,WeatherDisplay:10.37,2013-05-01 18:46:00,
2013-05-01 11:47:00,52.3,15.6,30.12,NNW,338,1.1,1.3,23,0.00,CLR,,0.08,WeatherDisplay:10.37,2013-05-01 18:47:00,
2013-05-01 11:49:00,52.2,15.4,30.12,NNW,338,1.0,0.0,23,0.00,CLR,,0.08,WeatherDisplay:10.37,2013-05-01 18:49:00,
2013-05-01 11:50:00,37.2,21.2,30.17,North,349,0.0,0.0,52,0.00,CLR,CLR,0.00,WeatherDisplay:10.37,2013-05-01 18:50:00,
2013-05-01 11:51:00,52.0,15.3,30.12,NNW,338,0.5,1.3,23,0.00,CLR,,0.08,WeatherDisplay:10.37,2013-05-01 18:51:00,
2013-05-01 11:52:00,52.0,14.3,30.12,NNE,22,0.5,1.1,22,0.00,CLR,,0.08,WeatherDisplay:10.37,2013-05-01 18:52:00,
2013-05-01 11:54:00,52.0,14.3,30.12,NW,315,0.2,0.0,22,0.00,CLR,,0.08,WeatherDisplay:10.37,2013-05-01 18:54:00,
2013-05-01 11:55:00,36.9,20.9,30.17,NNW,346,0.0,0.0,52,0.00,CLR,CLR,0.00,WeatherDisplay:10.37,2013-05-01 18:55:00,
2013-05-01 11:57:00,52.5,15.7,30.12,West,270,0.8,4.6,23,0.00,CLR,,0.08,WeatherDisplay:10.37,2013-05-01 18:57:00,
2013-05-01 11:58:00,52.5,15.7,30.12,West,270,0.8,4.6,23,0.00,CLR,,0.08,WeatherDisplay:10.37,2013-05-01 18:58:00,
2013-05-01 11:59:00,52.7,15.9,30.12,ESE,112,0.8,1.1,23,0.00,CLR,,0.08,WeatherDisplay:10.37,2013-05-01 18:59:00,
2013-05-01 12:00:00,37.0,21.0,30.17,NNW,344,0.0,0.0,52,0.00,CLR,CLR,0.00,WeatherDisplay:10.37,2013-05-01 19:00:00,
2013-05-01 12:02:00,52.5,14.7,30.12,East,90,0.8,4.6,22,0.00,CLR,,0.08,WeatherDisplay:10.37,2013-05-01 19:02:00,
2013-05-01 12:03:00,52.5,14.7,30.12,East,90,0.8,4.6,22,0.00,CLR,,0.08,WeatherDisplay:10.37,2013-05-01 19:03:00,
2013-05-01 12:05:00,52.5,14.7,30.12,NNW,338,1.0,1.6,22,0.00,CLR,,0.08,WeatherDisplay:10.37,2013-05-01 19:05:00,
2013-05-01 12:07:00,52.5,15.7,30.12,West,270,1.0,3.5,23,0.00,CLR,,0.08,WeatherDisplay:10.37,2013-05-01 19:07:00,
2013-05-01 12:08:00,52.5,15.7,30.12,West,270,1.0,3.5,23,0.00,CLR,,0.08,WeatherDisplay:10.37,2013-05-01 19:08:00,
2013-05-01 12:10:00,52.5,15.7,30.12,West,270,1.0,3.5,23,0.00,CLR,,0.08,WeatherDisplay:10.37,2013-05-01 19:10:00,
2013-05-01 12:12:00,52.5,15.7,30.12,West,270,1.0,3.5,23,0.00,CLR,,0.08,WeatherDisplay:10.37,2013-05-01 19:12:00,
2013-05-01 12:13:00,52.5,15.7,30.12,West,270,1.0,3.5,23,0.00,CLR,,0.08,WeatherDisplay:10.37,2013-05-01 19:13:00,
2013-05-01 12:15:00,52.5,15.7,30.12,West,270,1.0,3.5,23,0.00,CLR,,0.08,WeatherDisplay:10.37,2013-05-01 19:15:00,
2013-05-01 12:17:00,53.2,14.2,30.12,WSW,248,0.7,3.5,21,0.00,CLR,,0.08,WeatherDisplay:10.37,2013-05-01 19:17:00,
2013-05-01 12:18:00,53.2,14.2,30.12,WSW,248,0.7,3.5,21,0.00,CLR,,0.08,WeatherDisplay:10.37,2013-05-01 19:18:00,
2013-05-01 12:20:00,36.1,21.1,30.18,NNW,331,0.0,0.0,54,0.00,CLR,CLR,0.00,WeatherDisplay:10.37,2013-05-01 19:20:00,
2013-05-01 12:21:00,53.6,13.4,30.12,South,180,1.4,5.8,20,0.00,CLR,,0.08,WeatherDisplay:10.37,2013-05-01 19:21:00,
2013-05-01 12:23:00,53.2,14.2,30.12,NNE,22,1.4,0.0,21,0.00,CLR,,0.08,WeatherDisplay:10.37,2013-05-01 19:23:00,
2013-05-01 12:25:00,36.0,20.9,30.18,North,3,0.0,0.0,54,0.00,CLR,CLR,0.00,WeatherDisplay:10.37,2013-05-01 19:25:00,
2013-05-01 12:26:00,53.4,15.5,30.12,WSW,248,1.0,2.3,22,0.00,CLR,,0.08,WeatherDisplay:10.37,2013-05-01 19:26:00,
2013-05-01 12:28:00,53.6,14.5,30.12,ENE,68,0.8,0.0,21,0.00,CLR,,0.08,WeatherDisplay:10.37,2013-05-01 19:28:00,
2013-05-01 12:31:00,53.6,13.4,30.12,North,0,0.3,0.0,20,0.00,CLR,,0.08,WeatherDisplay:10.37,2013-05-01 19:31:00,
2013-05-01 12:33:00,53.4,14.4,30.12,NE,45,0.3,0.0,21,0.00,CLR,,0.08,WeatherDisplay:10.37,2013-05-01 19:33:00,
2013-05-01 12:34:00,53.4,14.4,30.12,NE,45,0.3,0.0,21,0.00,CLR,,0.08,WeatherDisplay:10.37,2013-05-01 19:34:00,
2013-05-01 12:35:00,35.8,21.2,30.18,ENE,65,0.0,0.0,55,0.00,CLR,CLR,0.00,WeatherDisplay:10.37,2013-05-01 19:35:00,
2013-05-01 12:36:00,54.1,13.9,30.12,WSW,248,0.7,2.3,20,0.00,CLR,,0.08,WeatherDisplay:10.37,2013-05-01 19:36:00,
2013-05-01 12:38:00,54.5,15.3,30.12,WSW,248,0.6,4.6,21,0.00,CLR,,0.08,WeatherDisplay:10.37,2013-05-01 19:38:00,
2013-05-01 12:39:00,54.5,15.3,30.12,WSW,248,0.6,4.6,21,0.00,CLR,,0.08,WeatherDisplay:10.37,2013-05-01 19:39:00,
2013-05-01 12:40:00,54.5,15.3,30.12,NNE,22,0.6,0.0,21,0.00,CLR,,0.08,WeatherDisplay:10.37,2013-05-01 19:40:00,
2013-05-01 12:42:00,54.5,15.3,30.12,ENE,68,0.5,0.0,21,0.00,CLR,,0.08,WeatherDisplay:10.37,2013-05-01 19:42:00,
2013-05-01 12:43:00,54.5,15.3,30.12,ENE,68,0.5,0.0,21,0.00,CLR,,0.08,WeatherDisplay:10.37,2013-05-01 19:43:00,
2013-05-01 12:44:00,54.7,15.5,30.12,WNW,292,0.5,0.0,21,0.00,CLR,,0.08,WeatherDisplay:10.37,2013-05-01 19:44:00,
2013-05-01 12:45:00,54.7,15.5,30.12,WNW,292,0.5,0.0,21,0.00,CLR,,0.08,WeatherDisplay:10.37,2013-05-01 19:45:00,
2013-05-01 12:47:00,54.9,14.5,30.12,NNW,338,0.3,2.3,20,0.00,CLR,,0.08,WeatherDisplay:10.37,2013-05-01 19:47:00,
2013-05-01 12:48:00,55.2,15.9,30.12,SW,225,0.3,2.3,21,0.00,CLR,,0.08,WeatherDisplay:10.37,2013-05-01 19:48:00,
2013-05-01 12:49:00,55.2,15.9,30.12,SW,225,0.3,2.3,21,0.00,CLR,,0.08,WeatherDisplay:10.37,2013-05-01 19:49:00,
2013-05-01 12:50:00,55.2,14.8,30.12,SSW,202,0.3,2.3,20,0.00,CLR,,0.08,WeatherDisplay:10.37,2013-05-01 19:50:00,
2013-05-01 12:52:00,54.5,14.2,30.12,WNW,292,0.5,2.6,20,0.00,CLR,,0.08,WeatherDisplay:10.37,2013-05-01 19:52:00,
2013-05-01 12:54:00,54.5,14.2,30.12,WNW,292,0.5,2.3,20,0.00,CLR,,0.08,WeatherDisplay:10.37,2013-05-01 19:54:00,
2013-05-01 12:55:00,54.5,14.2,30.12,SW,225,0.8,2.3,20,0.00,CLR,,0.08,WeatherDisplay:10.37,2013-05-01 19:55:00,
2013-05-01 12:57:00,55.2,14.8,30.12,NW,315,1.3,3.5,20,0.00,CLR,,0.08,WeatherDisplay:10.37,2013-05-01 19:57:00,
2013-05-01 12:59:00,55.0,14.6,30.12,West,270,1.3,3.5,20,0.00,CLR,,0.08,WeatherDisplay:10.37,2013-05-01 19:59:00,
2013-05-01 13:00:00,55.0,14.6,30.12,NNE,22,1.1,2.3,20,0.00,CLR,,0.08,WeatherDisplay:10.37,2013-05-01 20:00:00,
2013-05-01 13:01:00,55.0,14.6,30.12,NNE,22,1.1,2.3,20,0.00,CLR,,0.08,WeatherDisplay:10.37,2013-05-01 20:01:00,
2013-05-01 13:02:00,55.4,16.1,30.11,NNW,338,1.3,1.3,21,0.00,CLR,,0.08,WeatherDisplay:10.37,2013-05-01 20:02:00,
2013-05-01 13:04:00,55.4,16.1,30.11,West,270,1.1,0.0,21,0.00,CLR,,0.08,WeatherDisplay:10.37,2013-05-01 20:04:00,
2013-05-01 13:05:00,55.4,16.1,30.11,West,270,1.1,2.3,21,0.00,CLR,,0.08,WeatherDisplay:10.37,2013-05-01 20:05:00,
2013-05-01 13:06:00,55.8,16.4,30.11,South,180,1.5,2.3,21,0.00,CLR,,0.08,WeatherDisplay:10.37,2013-05-01 20:06:00,
2013-05-01 13:08:00,55.4,14.9,30.11,NE,45,1.1,8.1,20,0.00,CLR,,0.08,WeatherDisplay:10.37,2013-05-01 20:08:00,
2013-05-01 13:09:00,55.4,14.9,30.11,NE,45,1.1,8.1,20,0.00,CLR,,0.08,WeatherDisplay:10.37,2013-05-01 20:09:00,
2013-05-01 13:10:00,55.4,14.9,30.11,ESE,112,1.1,0.0,20,0.00,CLR,,0.08,WeatherDisplay:10.37,2013-05-01 20:10:00,
2013-05-01 13:11:00,55.4,14.9,30.11,ESE,112,1.1,0.0,20,0.00,CLR,,0.08,WeatherDisplay:10.37,2013-05-01 20:11:00,
2013-05-01 13:13:00,55.6,16.2,30.11,NW,315,1.5,2.3,21,0.00,CLR,,0.08,WeatherDisplay:10.37,2013-05-01 20:13:00,
2013-05-01 13:14:00,55.9,16.5,30.11,WSW,248,2.0,2.3,21,0.00,CLR,,0.08,WeatherDisplay:10.37,2013-05-01 20:14:00,
2013-05-01 13:16:00,55.9,15.4,30.11,SE,135,2.4,10.4,20,0.00,CLR,,0.08,WeatherDisplay:10.37,2013-05-01 20:16:00,
2013-05-01 13:17:00,55.9,15.4,30.11,SE,135,2.4,10.4,20,0.00,CLR,,0.08,WeatherDisplay:10.37,2013-05-01 20:17:00,
2013-05-01 13:18:00,55.8,15.2,30.11,ESE,112,2.0,2.3,20,0.00,CLR,,0.08,WeatherDisplay:10.37,2013-05-01 20:18:00,
2013-05-01 13:20:00,55.6,15.1,30.11,NW,315,2.0,0.0,20,0.00,CLR,,0.08,WeatherDisplay:10.37,2013-05-01 20:20:00,
2013-05-01 13:21:00,55.6,15.1,30.11,NW,315,2.0,0.0,20,0.00,CLR,,0.08,WeatherDisplay:10.37,2013-05-01 20:21:00,
2013-05-01 13:22:00,55.6,15.1,30.11,NW,315,2.0,0.0,20,0.00,CLR,,0.08,WeatherDisplay:10.37,2013-05-01 20:22:00,
2013-05-01 13:23:00,55.6,15.1,30.12,NNE,22,1.6,0.0,20,0.00,CLR,,0.08,WeatherDisplay:10.37,2013-05-01 20:23:00,
2013-05-01 13:25:00,56.1,15.5,30.12,South,180,1.1,0.0,20,0.00,CLR,,0.08,WeatherDisplay:10.37,2013-05-01 20:25:00,
2013-05-01 13:26:00,56.1,15.5,30.12,NNE,22,0.3,0.0,20,0.00,CLR,,0.08,WeatherDisplay:10.37,2013-05-01 20:26:00,
2013-05-01 13:27:00,56.1,15.5,30.12,NNE,22,0.3,0.0,20,0.00,CLR,,0.08,WeatherDisplay:10.37,2013-05-01 20:27:00,
2013-05-01 13:29:00,55.9,15.4,30.12,South,180,0.1,0.0,20,0.00,CLR,,0.08,WeatherDisplay:10.37,2013-05-01 20:29:00,
2013-05-01 13:30:00,55.9,15.4,30.12,SE,135,0.1,0.0,20,0.00,CLR,,0.08,WeatherDisplay:10.37,2013-05-01 20:30:00,
2013-05-01 13:32:00,55.9,15.4,30.12,SE,135,0.1,0.0,20,0.00,CLR,,0.08,WeatherDisplay:10.37,2013-05-01 20:32:00,
2013-05-01 13:34:00,55.8,15.2,30.12,ENE,68,0.2,0.0,20,0.00,CLR,,0.08,WeatherDisplay:10.37,2013-05-01 20:34:00,
2013-05-01 13:35:00,32.9,19.7,30.15,NNE,23,0.0,1.0,58,0.00,CLR,CLR,0.00,WeatherDisplay:10.37,2013-05-01 20:35:00,
2013-05-01 13:36:00,56.5,15.8,30.12,WSW,248,0.6,5.8,20,0.00,CLR,,0.08,WeatherDisplay:10.37,2013-05-01 20:36:00,
2013-05-01 13:37:00,56.5,15.8,30.12,NW,315,1.1,5.8,20,0.00,CLR,,0.08,WeatherDisplay:10.37,2013-05-01 20:37:00,
2013-05-01 13:39:00,56.8,16.1,30.12,East,90,1.7,4.6,20,0.00,CLR,,0.08,WeatherDisplay:10.37,2013-05-01 20:39:00,
2013-05-01 13:41:00,56.8,16.1,30.12,ESE,112,1.8,2.3,20,0.00,CLR,,0.08,WeatherDisplay:10.37,2013-05-01 20:41:00,
2013-05-01 13:42:00,56.7,16.0,30.11,WNW,292,2.2,2.3,20,0.00,CLR,,0.08,WeatherDisplay:10.37,2013-05-01 20:42:00,
2013-05-01 13:44:00,56.8,16.1,30.11,ENE,68,2.2,3.5,20,0.00,CLR,,0.08,WeatherDisplay:10.37,2013-05-01 20:44:00,
2013-05-01 13:46:00,57.0,17.4,30.11,WSW,248,1.8,1.8,21,0.00,CLR,,0.08,WeatherDisplay:10.37,2013-05-01 20:46:00,
2013-05-01 13:47:00,57.0,17.4,30.11,WSW,248,1.8,1.8,21,0.00,CLR,,0.08,WeatherDisplay:10.37,2013-05-01 20:47:00,
2013-05-01 13:48:00,57.0,17.4,30.11,WSW,248,1.8,1.8,21,0.00,CLR,,0.08,WeatherDisplay:10.37,2013-05-01 20:48:00,
2013-05-01 13:49:00,56.8,17.3,30.11,NNE,22,1.4,2.3,21,0.00,CLR,,0.08,WeatherDisplay:10.37,2013-05-01 20:49:00,
2013-05-01 13:52:00,57.4,15.4,30.11,West,270,1.5,6.0,19,0.00,CLR,,0.08,WeatherDisplay:10.37,2013-05-01 20:52:00,
2013-05-01 13:53:00,57.4,15.4,30.11,West,270,1.5,6.0,19,0.00,CLR,,0.08,WeatherDisplay:10.37,2013-05-01 20:53:00,
2013-05-01 13:54:00,57.4,15.4,30.11,SW,225,1.4,5.8,19,0.00,CLR,,0.08,WeatherDisplay:10.37,2013-05-01 20:54:00,
2013-05-01 13:57:00,57.2,12.7,30.11,WSW,248,1.3,3.5,17,0.00,CLR,,0.08,WeatherDisplay:10.37,2013-05-01 20:57:00,
2013-05-01 13:58:00,57.2,12.7,30.11,WSW,248,1.3,3.5,17,0.00,CLR,,0.08,WeatherDisplay:10.37,2013-05-01 20:58:00,
2013-05-01 13:59:00,57.2,12.7,30.11,West,270,2.0,6.9,17,0.00,CLR,,0.08,WeatherDisplay:10.37,2013-05-01 20:59:00,
2013-05-01 14:02:00,57.0,11.2,30.11,SW,225,1.8,3.5,16,0.00,CLR,,0.08,WeatherDisplay:10.37,2013-05-01 21:02:00,
2013-05-01 14:03:00,57.0,11.2,30.11,SW,225,1.8,3.5,16,0.00,CLR,,0.08,WeatherDisplay:10.37,2013-05-01 21:03:00,
2013-05-01 14:04:00,57.2,9.9,30.11,NW,315,1.6,2.2,15,0.00,CLR,,0.08,WeatherDisplay:10.37,2013-05-01 21:04:00,
2013-05-01 14:07:00,57.0,13.9,30.11,North,0,1.4,2.3,18,0.00,CLR,,0.08,WeatherDisplay:10.37,2013-05-01 21:07:00,
2013-05-01 14:08:00,57.0,13.9,30.11,ESE,112,1.0,0.0,18,0.00,CLR,,0.08,WeatherDisplay:10.37,2013-05-01 21:08:00,
2013-05-01 14:09:00,57.0,13.9,30.11,ESE,112,1.0,0.0,18,0.00,CLR,,0.08,WeatherDisplay:10.37,2013-05-01 21:09:00,
2013-05-01 14:12:00,56.8,13.7,30.11,ESE,112,0.2,0.0,18,0.00,CLR,,0.08,WeatherDisplay:10.37,2013-05-01 21:12:00,
2013-05-01 14:13:00,56.8,13.7,30.11,ESE,112,0.2,0.0,18,0.00,CLR,,0.08,WeatherDisplay:10.37,2013-05-01 21:13:00,
2013-05-01 14:14:00,57.0,13.9,30.11,WNW,292,0.2,0.0,18,0.00,CLR,,0.08,WeatherDisplay:10.37,2013-05-01 21:14:00,
2013-05-01 14:17:00,57.2,12.7,30.11,WSW,248,0.3,3.5,17,0.00,CLR,,0.08,WeatherDisplay:10.37,2013-05-01 21:17:00,
2013-05-01 14:18:00,57.2,12.7,30.11,NNW,338,0.6,3.5,17,0.00,CLR,,0.08,WeatherDisplay:10.37,2013-05-01 21:18:00,
2013-05-01 14:19:00,57.2,12.7,30.11,NNW,338,0.6,3.5,17,0.00,CLR,,0.08,WeatherDisplay:10.37,2013-05-01 21:19:00,
2013-05-01 14:20:00,57.2,12.7,30.11,NNW,338,0.6,3.5,17,0.00,CLR,,0.08,WeatherDisplay:10.37,2013-05-01 21:20:00,
2013-05-01 14:22:00,57.7,13.2,30.12,South,180,1.1,8.1,17,0.00,CLR,,0.08,WeatherDisplay:10.37,2013-05-01 21:22:00,
2013-05-01 14:23:00,57.7,13.2,30.12,South,180,1.1,8.1,17,0.00,CLR,,0.08,WeatherDisplay:10.37,2013-05-01 21:23:00,
2013-05-01 14:24:00,57.9,15.8,30.12,SSE,158,1.4,2.2,19,0.00,CLR,,0.08,WeatherDisplay:10.37,2013-05-01 21:24:00,
2013-05-01 14:25:00,57.9,15.8,30.12,SSE,158,1.4,2.3,19,0.00,CLR,,0.08,WeatherDisplay:10.37,2013-05-01 21:25:00,
2013-05-01 14:28:00,58.1,13.4,30.12,South,180,1.4,2.3,17,0.00,CLR,,0.08,WeatherDisplay:10.37,2013-05-01 21:28:00,
2013-05-01 14:29:00,57.9,13.3,30.12,NE,45,1.1,2.3,17,0.00,CLR,,0.08,WeatherDisplay:10.37,2013-05-01 21:29:00,
2013-05-01 14:30:00,57.9,13.3,30.12,NE,45,1.1,0.0,17,0.00,CLR,,0.08,WeatherDisplay:10.37,2013-05-01 21:30:00,
2013-05-01 14:33:00,57.7,13.2,30.12,ENE,68,0.3,0.0,17,0.00,CLR,,0.08,WeatherDisplay:10.37,2013-05-01 21:33:00,
2013-05-01 14:34:00,57.9,13.3,30.12,East,90,0.3,2.3,17,0.00,CLR,,0.08,WeatherDisplay:10.37,2013-05-01 21:34:00,
2013-05-01 14:35:00,57.9,13.3,30.12,East,90,0.3,2.3,17,0.00,CLR,,0.08,WeatherDisplay:10.37,2013-05-01 21:35:00,
2013-05-01 14:38:00,57.7,13.2,30.12,South,180,0.9,4.6,17,0.00,CLR,,0.08,WeatherDisplay:10.37,2013-05-01 21:38:00,
2013-05-01 14:40:00,58.3,13.6,30.12,SE,135,1.1,3.5,17,0.00,CLR,,0.08,WeatherDisplay:10.37,2013-05-01 21:40:00,
2013-05-01 14:41:00,58.3,13.6,30.12,SE,135,1.1,3.5,17,0.00,CLR,,0.08,WeatherDisplay:10.37,2013-05-01 21:41:00,
2013-05-01 14:43:00,58.3,13.6,30.12,NNW,338,1.1,2.3,17,0.00,CLR,,0.08,WeatherDisplay:10.37,2013-05-01 21:43:00,
2013-05-01 14:45:00,58.6,13.9,30.12,NW,315,1.6,2.3,17,0.00,CLR,,0.08,WeatherDisplay:10.37,2013-05-01 21:45:00,
2013-05-01 14:46:00,58.6,13.9,30.12,NW,315,1.6,2.3,17,0.00,CLR,,0.08,WeatherDisplay:10.37,2013-05-01 21:46:00,
2013-05-01 14:49:00,58.6,13.9,30.12,ENE,68,1.5,1.5,17,0.00,CLR,,0.08,WeatherDisplay:10.37,2013-05-01 21:49:00,
2013-05-01 14:50:00,58.8,14.0,30.12,West,270,1.5,1.8,17,0.00,CLR,,0.08,WeatherDisplay:10.37,2013-05-01 21:50:00,
2013-05-01 14:51:00,58.8,14.0,30.12,West,270,1.5,2.3,17,0.00,CLR,,0.08,WeatherDisplay:10.37,2013-05-01 21:51:00,
2013-05-01 14:54:00,58.3,13.6,30.12,North,0,1.4,2.3,17,0.00,CLR,,0.08,WeatherDisplay:10.37,2013-05-01 21:54:00,
2013-05-01 14:55:00,58.3,13.6,30.12,North,0,1.4,2.3,17,0.00,CLR,,0.08,WeatherDisplay:10.37,2013-05-01 21:55:00,
2013-05-01 14:56:00,58.5,13.7,30.12,SSE,158,1.1,0.0,17,0.00,CLR,,0.08,WeatherDisplay:10.37,2013-05-01 21:56:00,
2013-05-01 14:59:00,58.5,13.7,30.12,SSE,158,1.3,3.6,17,0.00,CLR,,0.08,WeatherDisplay:10.37,2013-05-01 21:59:00,
2013-05-01 15:00:00,58.3,13.6,30.12,East,90,0.9,3.5,17,0.00,CLR,,0.08,WeatherDisplay:10.37,2013-05-01 22:00:00,
2013-05-01 15:01:00,58.3,13.6,30.12,East,90,0.9,3.5,17,0.00,CLR,,0.08,WeatherDisplay:10.37,2013-05-01 22:01:00,
2013-05-01 15:02:00,58.6,13.9,30.12,NNW,338,0.6,1.3,17,0.00,CLR,,0.08,WeatherDisplay:10.37,2013-05-01 22:02:00,
2013-05-01 15:04:00,59.0,12.8,30.12,ENE,68,0.5,1.1,16,0.00,CLR,,0.08,WeatherDisplay:10.37,2013-05-01 22:04:00,
2013-05-01 15:06:00,59.0,12.8,30.12,ENE,68,0.3,2.3,16,0.00,CLR,,0.08,WeatherDisplay:10.37,2013-05-01 22:06:00,
2013-05-01 15:07:00,59.0,12.8,30.12,ENE,68,0.3,0.0,16,0.00,CLR,,0.08,WeatherDisplay:10.37,2013-05-01 22:07:00,
2013-05-01 15:10:00,58.8,11.2,30.12,SE,135,0.3,0.0,15,0.00,CLR,,0.08,WeatherDisplay:10.37,2013-05-01 22:10:00,
2013-05-01 15:11:00,58.8,11.2,30.12,NNE,22,0.2,0.0,15,0.00,CLR,,0.08,WeatherDisplay:10.37,2013-05-01 22:11:00,
2013-05-01 15:12:00,59.0,12.8,30.12,WSW,248,0.5,2.3,16,0.00,CLR,,0.08,WeatherDisplay:10.37,2013-05-01 22:12:00,
2013-05-01 15:15:00,59.2,11.5,30.12,SE,135,0.3,2.3,15,0.00,CLR,,0.08,WeatherDisplay:10.37,2013-05-01 22:15:00,
2013-05-01 15:16:00,59.5,11.8,30.12,East,90,0.3,1.1,15,0.00,CLR,,0.08,WeatherDisplay:10.37,2013-05-01 22:16:00,
2013-05-01 15:17:00,59.5,11.8,30.12,East,90,0.3,1.1,15,0.00,CLR,,0.08,WeatherDisplay:10.37,2013-05-01 22:17:00,
2013-05-01 15:20:00,59.7,11.9,30.12,WSW,256,0.0,1.0,15,0.00,CLR,CLR,0.08,WeatherDisplay:10.37,2013-05-01 22:20:00,
2013-05-01 15:21:00,59.5,11.8,30.12,NNE,22,0.5,0.0,15,0.00,CLR,,0.08,WeatherDisplay:10.37,2013-05-01 22:21:00,
2013-05-01 15:22:00,59.4,11.6,30.12,ESE,112,0.3,0.0,15,0.00,CLR,,0.08,WeatherDisplay:10.37,2013-05-01 22:22:00,
2013-05-01 15:24:00,59.0,11.3,30.12,South,180,0.3,1.5,15,0.00,CLR,,0.08,WeatherDisplay:10.37,2013-05-01 22:24:00,
2013-05-01 15:25:00,59.0,11.3,30.12,South,180,0.3,1.1,15,0.00,CLR,,0.08,WeatherDisplay:10.37,2013-05-01 22:25:00,
2013-05-01 15:26:00,58.8,11.2,30.12,ESE,112,0.3,1.1,15,0.00,CLR,,0.08,WeatherDisplay:10.37,2013-05-01 22:26:00,
2013-05-01 15:27:00,58.8,11.2,30.12,ESE,112,0.3,0.0,15,0.00,CLR,,0.08,WeatherDisplay:10.37,2013-05-01 22:27:00,
2013-05-01 15:29:00,58.8,11.2,30.12,SE,135,0.7,3.5,15,0.00,CLR,,0.08,WeatherDisplay:10.37,2013-05-01 22:29:00,
2013-05-01 15:30:00,58.8,11.2,30.12,SE,127,1.0,5.0,15,0.00,CLR,CLR,0.08,WeatherDisplay:10.37,2013-05-01 22:30:00,
2013-05-01 15:31:00,59.4,11.6,30.12,SSE,158,1.1,4.6,15,0.00,CLR,,0.08,WeatherDisplay:10.37,2013-05-01 22:31:00,
2013-05-01 15:32:00,59.0,12.8,30.12,NNW,338,1.1,4.6,16,0.00,CLR,,0.08,WeatherDisplay:10.37,2013-05-01 22:32:00,
2013-05-01 15:33:00,59.0,12.8,30.12,NNW,338,1.1,4.6,16,0.00,CLR,,0.08,WeatherDisplay:10.37,2013-05-01 22:33:00,
2013-05-01 15:34:00,59.5,13.2,30.12,NW,315,1.3,1.3,16,0.00,CLR,,0.08,WeatherDisplay:10.37,2013-05-01 22:34:00,
2013-05-01 15:35:00,59.5,13.2,30.12,NW,315,1.3,1.3,16,0.00,CLR,,0.08,WeatherDisplay:10.37,2013-05-01 22:35:00,
2013-05-01 15:37:00,59.4,11.6,30.12,NNW,338,1.1,0.0,15,0.00,CLR,,0.08,WeatherDisplay:10.37,2013-05-01 22:37:00,
2013-05-01 15:38:00,59.5,11.8,30.12,NW,315,1.6,5.8,15,0.00,CLR,,0.08,WeatherDisplay:10.37,2013-05-01 22:38:00,
2013-05-01 15:39:00,59.5,11.8,30.12,NW,315,1.6,5.8,15,0.00,CLR,,0.08,WeatherDisplay:10.37,2013-05-01 22:39:00,
2013-05-01 15:41:00,57.4,19.8,30.12,West,270,2.0,5.8,23,0.00,CLR,,0.08,WeatherDisplay:10.37,2013-05-01 22:41:00,
2013-05-01 15:42:00,56.7,19.2,30.12,WSW,248,2.1,5.8,23,0.00,CLR,,0.08,WeatherDisplay:10.37,2013-05-01 22:42:00,
2013-05-01 15:43:00,56.7,19.2,30.12,WSW,248,2.1,5.8,23,0.00,CLR,,0.08,WeatherDisplay:10.37,2013-05-01 22:43:00,
2013-05-01 15:44:00,56.8,18.3,30.12,West,270,2.1,3.5,22,0.00,CLR,,0.08,WeatherDisplay:10.37,2013-05-01 22:44:00,
2013-05-01 15:46:00,57.4,17.7,30.12,WSW,248,2.0,2.2,21,0.00,CLR,,0.08,WeatherDisplay:10.37,2013-05-01 22:46:00,
2013-05-01 15:47:00,57.4,17.7,30.12,WSW,248,2.0,2.3,21,0.00,CLR,,0.08,WeatherDisplay:10.37,2013-05-01 22:47:00,
2013-05-01 15:48:00,57.7,16.9,30.12,ENE,68,2.0,2.3,20,0.00,CLR,,0.08,WeatherDisplay:10.37,2013-05-01 22:48:00,
2013-05-01 15:49:00,57.7,16.9,30.12,ENE,68,2.0,2.3,20,0.00,CLR,,0.08,WeatherDisplay:10.37,2013-05-01 22:49:00,
2013-05-01 15:52:00,57.7,16.9,30.12,NNE,22,0.3,1.0,20,0.00,CLR,,0.08,WeatherDisplay:10.37,2013-05-01 22:52:00,
2013-05-01 15:53:00,57.7,16.9,30.12,NNE,22,0.3,1.0,20,0.00,CLR,,0.08,WeatherDisplay:10.37,2013-05-01 22:53:00,
2013-05-01 15:54:00,58.3,17.3,30.12,SE,135,0.3,1.1,20,0.00,CLR,,0.08,WeatherDisplay:10.37,2013-05-01 22:54:00,
2013-05-01 15:57:00,58.5,16.3,30.12,SSE,158,0.7,4.6,19,0.00,CLR,,0.08,WeatherDisplay:10.37,2013-05-01 22:57:00,
2013-05-01 15:58:00,58.8,16.6,30.12,SE,135,1.0,4.6,19,0.00,CLR,,0.08,WeatherDisplay:10.37,2013-05-01 22:58:00,
2013-05-01 15:59:00,58.8,16.6,30.12,SE,135,1.0,4.6,19,0.00,CLR,,0.08,WeatherDisplay:10.37,2013-05-01 22:59:00,
2013-05-01 16:00:00,58.8,16.6,30.12,SE,135,1.0,4.6,19,0.00,CLR,,0.08,WeatherDisplay:10.37,2013-05-01 23:00:00,
2013-05-01 16:02:00,58.6,16.4,30.12,WSW,248,1.0,2.3,19,0.00,CLR,,0.08,WeatherDisplay:10.37,2013-05-01 23:02:00,
2013-05-01 16:03:00,58.6,16.4,30.12,WSW,248,1.0,2.3,19,0.00,CLR,,0.08,WeatherDisplay:10.37,2013-05-01 23:03:00,
2013-05-01 16:04:00,58.6,13.9,30.12,WSW,248,1.1,0.0,17,0.03,RA,,0.11,WeatherDisplay:10.37,2013-05-01 23:04:00,
2013-05-01 16:05:00,58.6,13.9,30.12,WSW,248,1.1,0.0,17,0.03,RA,,0.11,WeatherDisplay:10.37,2013-05-01 23:05:00,
2013-05-01 16:07:00,58.8,14.0,30.12,ESE,112,1.0,2.3,17,0.03,RA,,0.11,WeatherDisplay:10.37,2013-05-01 23:07:00,
2013-05-01 16:08:00,59.0,12.8,30.12,ESE,112,1.0,2.3,16,0.03,RA,,0.11,WeatherDisplay:10.37,2013-05-01 23:08:00,
2013-05-01 16:09:00,59.0,12.8,30.12,ESE,112,1.0,3.5,16,0.03,RA,,0.11,WeatherDisplay:10.37,2013-05-01 23:09:00,
2013-05-01 16:10:00,59.0,11.3,30.12,East,90,1.1,3.5,15,0.03,RA,,0.11,WeatherDisplay:10.37,2013-05-01 23:10:00,
2013-05-01 16:13:00,59.2,11.5,30.12,SSE,158,1.4,3.5,15,0.03,RA,,0.11,WeatherDisplay:10.37,2013-05-01 23:13:00,
2013-05-01 16:14:00,59.2,11.5,30.12,ESE,112,1.7,2.3,15,0.03,,,0.11,WeatherDisplay:10.37,2013-05-01 23:14:00,
2013-05-01 16:15:00,59.2,11.5,30.12,ESE,112,1.7,2.3,15,0.03,,,0.11,WeatherDisplay:10.37,2013-05-01 23:15:00,
2013-05-01 16:18:00,59.4,11.6,30.12,North,0,1.6,4.6,15,0.03,CLR,,0.11,WeatherDisplay:10.37,2013-05-01 23:18:00,
2013-05-01 16:19:00,59.4,11.6,30.12,North,0,1.6,4.6,15,0.03,CLR,,0.11,WeatherDisplay:10.37,2013-05-01 23:19:00,
2013-05-01 16:20:00,59.4,11.6,30.12,West,270,1.4,0.0,15,0.03,CLR,,0.11,WeatherDisplay:10.37,2013-05-01 23:20:00,
2013-05-01 16:23:00,59.4,8.4,30.12,ENE,68,1.1,1.1,13,0.03,CLR,,0.11,WeatherDisplay:10.37,2013-05-01 23:23:00,
2013-05-01 16:24:00,59.0,11.3,30.12,SW,225,0.7,1.1,15,0.03,CLR,,0.11,WeatherDisplay:10.37,2013-05-01 23:24:00,
2013-05-01 16:25:00,59.0,11.3,30.12,SW,225,0.7,1.1,15,0.03,CLR,,0.11,WeatherDisplay:10.37,2013-05-01 23:25:00,
2013-05-01 16:26:00,59.0,11.3,30.12,SW,225,0.7,1.1,15,0.03,CLR,,0.11,WeatherDisplay:10.37,2013-05-01 23:26:00,
2013-05-01 16:28:00,59.0,8.1,30.12,South,180,0.2,1.1,13,0.03,CLR,,0.11,WeatherDisplay:10.37,2013-05-01 23:28:00,
2013-05-01 16:29:00,59.0,8.1,30.12,South,180,0.2,1.1,13,0.03,CLR,,0.11,WeatherDisplay:10.37,2013-05-01 23:29:00,
2013-05-01 16:30:00,59.2,11.5,30.12,ENE,68,0.3,0.0,15,0.03,CLR,,0.11,WeatherDisplay:10.37,2013-05-01 23:30:00,
2013-05-01 16:31:00,59.2,11.5,30.12,ENE,68,0.3,0.0,15,0.03,CLR,,0.11,WeatherDisplay:10.37,2013-05-01 23:31:00,
2013-05-01 16:33:00,59.0,11.3,30.12,NE,45,0.3,2.3,15,0.03,CLR,,0.11,WeatherDisplay:10.37,2013-05-01 23:33:00,
2013-05-01 16:35:00,59.2,11.5,30.12,ENE,68,0.3,0.0,15,0.03,CLR,,0.11,WeatherDisplay:10.37,2013-05-01 23:35:00,
2013-05-01 16:36:00,59.2,11.5,30.12,ENE,68,0.3,0.0,15,0.03,CLR,,0.11,WeatherDisplay:10.37,2013-05-01 23:36:00,
2013-05-01 16:38:00,59.2,11.5,30.12,WSW,248,0.7,2.3,15,0.03,CLR,,0.11,WeatherDisplay:10.37,2013-05-01 23:38:00,
2013-05-01 16:40:00,59.2,11.5,30.12,ENE,68,1.0,2.4,15,0.03,CLR,,0.11,WeatherDisplay:10.37,2013-05-01 23:40:00,
2013-05-01 16:41:00,59.2,11.5,30.12,ENE,68,1.0,2.4,15,0.03,CLR,,0.11,WeatherDisplay:10.37,2013-05-01 23:41:00,
2013-05-01 16:43:00,59.4,11.6,30.12,SSE,158,1.0,4.8,15,0.03,CLR,,0.11,WeatherDisplay:10.37,2013-05-01 23:43:00,
2013-05-01 16:45:00,59.5,11.8,30.12,South,180,1.1,4.6,15,0.03,CLR,,0.11,WeatherDisplay:10.37,2013-05-01 23:45:00,
2013-05-01 16:46:00,59.7,11.9,30.12,SSE,158,1.1,2.4,15,0.03,CLR,,0.11,WeatherDisplay:10.37,2013-05-01 23:46:00,
2013-05-01 16:49:00,59.5,11.8,30.12,South,180,1.0,2.3,15,0.03,CLR,,0.11,WeatherDisplay:10.37,2013-05-01 23:49:00,
2013-05-01 16:51:00,59.9,12.1,30.12,NE,45,0.8,0.0,15,0.03,CLR,,0.11,WeatherDisplay:10.37,2013-05-01 23:51:00,
2013-05-01 16:54:00,59.7,8.7,30.12,WNW,292,0.3,0.0,13,0.03,CLR,,0.11,WeatherDisplay:10.37,2013-05-01 23:54:00,
2013-05-01 16:56:00,59.7,8.7,30.12,WNW,292,0.3,1.6,13,0.03,CLR,,0.11,WeatherDisplay:10.37,2013-05-01 23:56:00,
2013-05-01 16:57:00,59.9,8.8,30.12,SSE,158,0.3,1.1,13,0.03,CLR,,0.11,WeatherDisplay:10.37,2013-05-01 23:57:00,
2013-05-01 17:00:00,59.7,8.7,30.12,SSW,192,0.0,2.0,13,0.00,CLR,CLR,0.11,WeatherDisplay:10.37,2013-05-02 00:00:00,
2013-05-01 17:01:00,59.9,8.8,30.12,SE,135,0.3,1.5,13,0.03,CLR,,0.11,WeatherDisplay:10.37,2013-05-02 00:01:00,
2013-05-01 17:02:00,60.1,12.2,30.11,ESE,112,0.3,1.8,15,0.03,CLR,,0.11,WeatherDisplay:10.37,2013-05-02 00:02:00,
2013-05-01 17:05:00,60.1,9.0,30.11,NNE,22,0.3,2.3,13,0.00,CLR,,0.11,WeatherDisplay:10.37,2013-05-02 00:05:00,
2013-05-01 17:06:00,60.1,9.0,30.11,East,90,0.3,0.0,13,0.00,CLR,,0.11,WeatherDisplay:10.37,2013-05-02 00:06:00,
2013-05-01 17:07:00,60.1,9.0,30.11,East,90,0.3,0.0,13,0.00,CLR,,0.11,WeatherDisplay:10.37,2013-05-02 00:07:00,
2013-05-01 17:11:00,60.4,9.3,30.11,SSE,158,0.7,2.3,13,0.00,CLR,,0.11,WeatherDisplay:10.37,2013-05-02 00:11:00,
2013-05-01 17:12:00,60.3,9.1,30.11,WSW,248,0.8,2.3,13,0.00,CLR,,0.11,WeatherDisplay:10.37,2013-05-02 00:12:00,
2013-05-01 17:13:00,60.3,9.1,30.11,WSW,248,0.8,2.3,13,0.00,CLR,,0.11,WeatherDisplay:10.37,2013-05-02 00:13:00,
2013-05-01 17:16:00,60.3,12.4,30.11,WNW,292,1.1,2.3,15,0.00,CLR,,0.11,WeatherDisplay:10.37,2013-05-02 00:16:00,
2013-05-01 17:17:00,60.3,12.4,30.11,WNW,292,1.1,2.3,15,0.00,CLR,,0.11,WeatherDisplay:10.37,2013-05-02 00:17:00,
2013-05-01 17:18:00,60.4,12.5,30.11,SE,135,1.1,0.0,15,0.00,CLR,,0.11,WeatherDisplay:10.37,2013-05-02 00:18:00,
2013-05-01 17:21:00,60.3,12.4,30.11,North,0,0.9,1.1,15,0.00,CLR,,0.11,WeatherDisplay:10.37,2013-05-02 00:21:00,
2013-05-01 17:22:00,60.3,12.4,30.11,ESE,112,0.6,1.1,15,0.00,CLR,,0.11,WeatherDisplay:10.37,2013-05-02 00:22:00,
2013-05-01 17:23:00,60.3,12.4,30.11,ESE,112,0.6,1.1,15,0.00,CLR,,0.11,WeatherDisplay:10.37,2013-05-02 00:23:00,
2013-05-01 17:26:00,60.4,9.3,30.11,SSE,158,1.1,4.6,13,0.00,CLR,,0.11,WeatherDisplay:10.37,2013-05-02 00:26:00,
2013-05-01 17:27:00,60.4,9.3,30.11,SSE,158,1.1,4.6,13,0.00,CLR,,0.11,WeatherDisplay:10.37,2013-05-02 00:27:00,
2013-05-01 17:29:00,60.4,9.3,30.11,SE,135,1.3,2.3,13,0.00,CLR,,0.11,WeatherDisplay:10.37,2013-05-02 00:29:00,
2013-05-01 17:32:00,60.4,12.5,30.11,SW,225,1.1,1.1,15,0.00,CLR,,0.11,WeatherDisplay:10.37,2013-05-02 00:32:00,
2013-05-01 17:33:00,60.3,9.1,30.11,ENE,68,1.3,0.0,13,0.00,CLR,,0.11,WeatherDisplay:10.37,2013-05-02 00:33:00,
2013-05-01 17:34:00,60.3,9.1,30.11,ENE,68,1.3,0.0,13,0.00,CLR,,0.11,WeatherDisplay:10.37,2013-05-02 00:34:00,
2013-05-01 17:37:00,60.3,9.1,30.11,ESE,112,0.7,0.0,13,0.00,CLR,,0.11,WeatherDisplay:10.37,2013-05-02 00:37:00,
2013-05-01 17:38:00,60.1,9.0,30.11,NNE,22,0.1,0.0,13,0.00,CLR,,0.11,WeatherDisplay:10.37,2013-05-02 00:38:00,
2013-05-01 17:39:00,60.1,9.0,30.11,NNE,22,0.1,0.0,13,0.00,CLR,,0.11,WeatherDisplay:10.37,2013-05-02 00:39:00,
2013-05-01 17:42:00,59.9,8.8,30.13,NE,45,0.2,0.0,13,0.00,CLR,,0.11,WeatherDisplay:10.37,2013-05-02 00:42:00,
2013-05-01 17:43:00,59.9,8.8,30.13,NE,45,0.2,1.4,13,0.00,CLR,,0.11,WeatherDisplay:10.37,2013-05-02 00:43:00,
2013-05-01 17:44:00,59.9,8.8,30.13,NW,315,0.3,1.1,13,0.00,CLR,,0.11,WeatherDisplay:10.37,2013-05-02 00:44:00,
2013-05-01 17:47:00,59.9,8.8,30.13,SW,225,0.5,2.5,13,0.00,CLR,,0.11,WeatherDisplay:10.37,2013-05-02 00:47:00,
2013-05-01 17:48:00,59.9,8.8,30.13,SW,225,0.5,2.5,13,0.00,CLR,,0.11,WeatherDisplay:10.37,2013-05-02 00:48:00,
2013-05-01 17:49:00,59.9,8.8,30.13,NE,45,0.5,2.3,13,0.00,CLR,,0.11,WeatherDisplay:10.37,2013-05-02 00:49:00,
2013-05-01 17:53:00,59.7,11.9,30.13,SE,135,0.6,0.0,15,0.00,CLR,,0.11,WeatherDisplay:10.37,2013-05-02 00:53:00,
2013-05-01 17:54:00,59.7,11.9,30.13,SE,135,0.6,0.0,15,0.00,CLR,,0.11,WeatherDisplay:10.37,2013-05-02 00:54:00,
2013-05-01 17:58:00,59.9,12.1,30.13,NW,315,0.8,2.3,15,0.00,CLR,,0.11,WeatherDisplay:10.37,2013-05-02 00:58:00,
2013-05-01 17:59:00,59.9,12.1,30.13,ESE,112,1.1,2.3,15,0.00,CLR,,0.11,WeatherDisplay:10.37,2013-05-02 00:59:00,
2013-05-01 18:00:00,59.9,12.1,30.13,ESE,112,1.1,2.3,15,0.00,CLR,,0.11,WeatherDisplay:10.37,2013-05-02 01:00:00,
2013-05-01 18:03:00,59.9,13.5,30.12,SSE,158,1.1,1.1,16,0.00,CLR,,0.11,WeatherDisplay:10.37,2013-05-02 01:03:00,
2013-05-01 18:04:00,59.9,13.5,30.12,SSE,158,1.1,1.1,16,0.00,CLR,,0.11,WeatherDisplay:10.37,2013-05-02 01:04:00,
2013-05-01 18:05:00,60.1,13.7,30.12,NNE,22,1.0,1.1,16,0.00,CLR,,0.11,WeatherDisplay:10.37,2013-05-02 01:05:00,
2013-05-01 18:08:00,59.9,13.5,30.12,SSW,202,1.1,2.3,16,0.00,CLR,,0.11,WeatherDisplay:10.37,2013-05-02 01:08:00,
2013-05-01 18:09:00,59.9,13.5,30.12,East,90,1.3,4.6,16,0.00,CLR,,0.11,WeatherDisplay:10.37,2013-05-02 01:09:00,
2013-05-01 18:10:00,59.9,13.5,30.12,SE,135,1.3,4.6,16,0.00,CLR,,0.11,WeatherDisplay:10.37,2013-05-02 01:10:00,
2013-05-01 18:13:00,59.9,13.5,30.12,SSW,202,1.3,2.3,16,0.00,CLR,,0.11,WeatherDisplay:10.37,2013-05-02 01:13:00,
2013-05-01 18:14:00,59.9,13.5,30.12,ESE,112,1.6,2.6,16,0.00,CLR,,0.11,WeatherDisplay:10.37,2013-05-02 01:14:00,
2013-05-01 18:15:00,59.9,13.5,30.12,ESE,112,1.6,2.3,16,0.00,CLR,,0.11,WeatherDisplay:10.37,2013-05-02 01:15:00,
2013-05-01 18:18:00,59.9,13.5,30.12,ESE,112,1.3,0.0,16,0.00,CLR,,0.11,WeatherDisplay:10.37,2013-05-02 01:18:00,
2013-05-01 18:19:00,59.9,13.5,30.12,ESE,112,1.3,0.0,16,0.00,CLR,,0.11,WeatherDisplay:10.37,2013-05-02 01:19:00,
2013-05-01 18:20:00,59.9,13.5,30.12,ESE,112,1.3,0.0,16,0.00,CLR,,0.11,WeatherDisplay:10.37,2013-05-02 01:20:00,
2013-05-01 18:21:00,59.7,13.4,30.12,SSE,158,1.1,0.0,16,0.00,CLR,,0.11,WeatherDisplay:10.37,2013-05-02 01:21:00,
2013-05-01 18:23:00,59.7,16.1,30.13,NNE,22,1.1,3.5,18,0.00,CLR,,0.11,WeatherDisplay:10.37,2013-05-02 01:23:00,
2013-05-01 18:24:00,59.7,16.1,30.13,SE,135,1.1,2.8,18,0.00,CLR,,0.11,WeatherDisplay:10.37,2013-05-02 01:24:00,
2013-05-01 18:25:00,59.7,16.1,30.13,SE,135,1.1,2.3,18,0.00,CLR,,0.11,WeatherDisplay:10.37,2013-05-02 01:25:00,
2013-05-01 18:26:00,59.7,16.1,30.13,SE,135,1.1,2.3,18,0.00,CLR,,0.11,WeatherDisplay:10.37,2013-05-02 01:26:00,
2013-05-01 18:28:00,59.7,16.1,30.13,ESE,112,1.1,0.0,18,0.00,CLR,,0.11,WeatherDisplay:10.37,2013-05-02 01:28:00,
2013-05-01 18:29:00,59.7,16.1,30.13,ESE,112,1.1,1.1,18,0.00,CLR,,0.11,WeatherDisplay:10.37,2013-05-02 01:29:00,
2013-05-01 18:30:00,59.7,16.1,30.13,ESE,112,1.1,1.1,18,0.00,CLR,,0.11,WeatherDisplay:10.37,2013-05-02 01:30:00,
2013-05-01 18:31:00,59.7,16.1,30.13,ESE,112,0.9,1.5,18,0.00,CLR,,0.11,WeatherDisplay:10.37,2013-05-02 01:31:00,
2013-05-01 18:33:00,59.7,16.1,30.13,SE,135,0.8,2.6,18,0.00,CLR,,0.11,WeatherDisplay:10.37,2013-05-02 01:33:00,
2013-05-01 18:34:00,59.5,15.9,30.13,WNW,292,0.6,2.3,18,0.00,CLR,,0.11,WeatherDisplay:10.37,2013-05-02 01:34:00,
2013-05-01 18:35:00,59.5,15.9,30.13,WNW,292,0.6,2.3,18,0.00,CLR,,0.11,WeatherDisplay:10.37,2013-05-02 01:35:00,
2013-05-01 18:36:00,59.5,15.9,30.13,WNW,292,0.6,2.3,18,0.00,CLR,,0.11,WeatherDisplay:10.37,2013-05-02 01:36:00,
2013-05-01 18:38:00,59.5,18.4,30.13,West,270,0.5,1.1,20,0.00,CLR,,0.11,WeatherDisplay:10.37,2013-05-02 01:38:00,
2013-05-01 18:39:00,59.5,18.4,30.13,West,270,0.5,3.5,20,0.00,CLR,,0.11,WeatherDisplay:10.37,2013-05-02 01:39:00,
2013-05-01 18:41:00,59.5,18.4,30.13,South,180,0.9,3.5,20,0.00,CLR,,0.11,WeatherDisplay:10.37,2013-05-02 01:41:00,
2013-05-01 18:44:00,59.4,18.2,30.13,NNW,338,1.0,1.3,20,0.00,CLR,,0.11,WeatherDisplay:10.37,2013-05-02 01:44:00,
2013-05-01 18:46:00,59.2,18.1,30.13,East,90,1.5,4.6,20,0.00,CLR,,0.11,WeatherDisplay:10.37,2013-05-02 01:46:00,
2013-05-01 18:49:00,59.0,17.9,30.13,ENE,68,1.5,2.3,20,0.00,CLR,,0.11,WeatherDisplay:10.37,2013-05-02 01:49:00,
2013-05-01 18:51:00,59.0,17.9,30.13,South,180,1.8,5.8,20,0.00,CLR,,0.11,WeatherDisplay:10.37,2013-05-02 01:51:00,
2013-05-01 18:54:00,59.2,18.1,30.13,ENE,68,1.5,1.5,20,0.00,CLR,,0.11,WeatherDisplay:10.37,2013-05-02 01:54:00,
2013-05-01 18:56:00,59.0,17.9,30.13,SSW,202,1.1,0.0,20,0.00,CLR,,0.11,WeatherDisplay:10.37,2013-05-02 01:56:00,
2013-05-01 18:59:00,59.2,18.1,30.13,ENE,68,1.0,0.0,20,0.00,CLR,,0.11,WeatherDisplay:10.37,2013-05-02 01:59:00,
2013-05-01 19:00:00,59.2,18.1,30.13,ESE,112,1.1,0.0,20,0.00,CLR,,0.11,WeatherDisplay:10.37,2013-05-02 02:00:00,
2013-05-01 19:01:00,59.2,18.1,30.13,ESE,112,1.1,4.9,20,0.00,CLR,,0.11,WeatherDisplay:10.37,2013-05-02 02:01:00,
2013-05-01 19:02:00,59.2,18.1,30.13,ESE,112,1.1,4.9,20,0.00,CLR,,0.11,WeatherDisplay:10.37,2013-05-02 02:02:00,
2013-05-01 19:05:00,58.5,17.5,30.13,WSW,248,1.5,1.5,20,0.00,CLR,,0.11,WeatherDisplay:10.37,2013-05-02 02:05:00,
2013-05-01 19:06:00,58.1,17.2,30.13,ESE,112,1.8,2.0,20,0.00,CLR,,0.11,WeatherDisplay:10.37,2013-05-02 02:06:00,
2013-05-01 19:07:00,58.1,17.2,30.13,ESE,112,1.8,2.3,20,0.00,CLR,,0.11,WeatherDisplay:10.37,2013-05-02 02:07:00,
2013-05-01 19:08:00,57.9,17.0,30.13,ENE,68,2.2,3.5,20,0.00,CLR,,0.11,WeatherDisplay:10.37,2013-05-02 02:08:00,
2013-05-01 19:10:00,57.9,17.0,30.13,ENE,68,2.2,3.5,20,0.00,CLR,,0.11,WeatherDisplay:10.37,2013-05-02 02:10:00,
2013-05-01 19:11:00,57.7,16.9,30.13,ENE,68,2.2,3.5,20,0.00,CLR,,0.11,WeatherDisplay:10.37,2013-05-02 02:11:00,
2013-05-01 19:12:00,57.6,17.9,30.13,NE,45,2.0,2.3,21,0.00,CLR,,0.11,WeatherDisplay:10.37,2013-05-02 02:12:00,
2013-05-01 19:13:00,57.6,17.9,30.13,NE,45,2.0,2.3,21,0.00,CLR,,0.11,WeatherDisplay:10.37,2013-05-02 02:13:00,
2013-05-01 19:15:00,57.2,17.6,30.13,SE,135,1.7,0.0,21,0.00,CLR,,0.11,WeatherDisplay:10.37,2013-05-02 02:15:00,
2013-05-01 19:16:00,57.0,17.4,30.13,South,180,1.7,2.3,21,0.00,CLR,,0.11,WeatherDisplay:10.37,2013-05-02 02:16:00,
2013-05-01 19:18:00,56.7,17.1,30.13,SSE,158,1.6,2.3,21,0.00,CLR,,0.11,WeatherDisplay:10.37,2013-05-02 02:18:00,
2013-05-01 19:19:00,56.7,17.1,30.13,SSE,158,1.6,2.3,21,0.00,CLR,,0.11,WeatherDisplay:10.37,2013-05-02 02:19:00,
2013-05-01 19:20:00,56.7,17.1,30.13,SSE,158,1.6,2.3,21,0.00,CLR,,0.11,WeatherDisplay:10.37,2013-05-02 02:20:00,
2013-05-01 19:21:00,56.5,17.0,30.13,SSW,202,1.7,3.5,21,0.00,CLR,,0.11,WeatherDisplay:10.37,2013-05-02 02:21:00,
2013-05-01 19:22:00,56.5,17.0,30.13,SSW,202,1.7,3.5,21,0.00,CLR,,0.11,WeatherDisplay:10.37,2013-05-02 02:22:00,
2013-05-01 19:23:00,56.5,17.0,30.14,SE,135,2.0,4.6,21,0.00,CLR,,0.11,WeatherDisplay:10.37,2013-05-02 02:23:00,
2013-05-01 19:24:00,56.5,17.0,30.14,SE,135,2.0,4.9,21,0.00,CLR,,0.11,WeatherDisplay:10.37,2013-05-02 02:24:00,
2013-05-01 19:25:00,56.3,16.8,30.14,South,173,2.0,5.0,21,0.00,CLR,CLR,0.11,WeatherDisplay:10.37,2013-05-02 02:25:00,
2013-05-01 19:27:00,56.1,16.7,30.14,NE,45,2.3,3.5,21,0.00,CLR,,0.11,WeatherDisplay:10.37,2013-05-02 02:27:00,
2013-05-01 19:28:00,55.9,16.5,30.14,SE,135,2.4,2.4,21,0.00,CLR,,0.11,WeatherDisplay:10.37,2013-05-02 02:28:00,
2013-05-01 19:29:00,55.9,16.5,30.14,SE,135,2.4,4.6,21,0.00,CLR,,0.11,WeatherDisplay:10.37,2013-05-02 02:29:00,
2013-05-01 19:30:00,55.9,16.5,30.14,SE,138,2.0,5.0,21,0.00,CLR,CLR,0.11,WeatherDisplay:10.37,2013-05-02 02:30:00,
2013-05-01 19:32:00,55.8,16.4,30.14,NNW,338,2.3,2.3,21,0.00,CLR,,0.11,WeatherDisplay:10.37,2013-05-02 02:32:00,
2013-05-01 19:34:00,55.8,16.4,30.14,NE,45,2.0,0.0,21,0.00,CLR,,0.11,WeatherDisplay:10.37,2013-05-02 02:34:00,
2013-05-01 19:35:00,55.6,16.2,30.14,NE,54,1.0,5.0,21,0.00,CLR,CLR,0.11,WeatherDisplay:10.37,2013-05-02 02:35:00,
2013-05-01 19:37:00,55.4,16.1,30.14,ENE,68,1.3,2.3,21,0.00,CLR,,0.11,WeatherDisplay:10.37,2013-05-02 02:37:00,
2013-05-01 19:39:00,55.2,14.8,30.14,SSE,158,1.4,2.6,20,0.00,CLR,,0.11,WeatherDisplay:10.37,2013-05-02 02:39:00,
2013-05-01 19:40:00,55.2,14.8,30.14,ESE,112,1.1,2.3,20,0.00,CLR,,0.11,WeatherDisplay:10.37,2013-05-02 02:40:00,
2013-05-01 19:42:00,55.0,14.6,30.14,South,180,0.9,1.1,20,0.00,CLR,,0.11,WeatherDisplay:10.37,2013-05-02 02:42:00,
2013-05-01 19:43:00,55.0,14.6,30.14,South,180,0.9,1.1,20,0.00,CLR,,0.11,WeatherDisplay:10.37,2013-05-02 02:43:00,
2013-05-01 19:44:00,54.9,14.5,30.14,North,0,0.9,1.1,20,0.00,CLR,,0.11,WeatherDisplay:10.37,2013-05-02 02:44:00,
2013-05-01 19:45:00,54.9,14.5,30.14,North,0,0.9,1.1,20,0.00,CLR,,0.11,WeatherDisplay:10.37,2013-05-02 02:45:00,
2013-05-01 19:47:00,54.7,14.3,30.14,SSE,158,1.0,2.3,20,0.00,CLR,,0.11,WeatherDisplay:10.37,2013-05-02 02:47:00,
2013-05-01 19:49:00,54.7,14.3,30.14,ESE,112,1.1,2.3,20,0.00,CLR,,0.11,WeatherDisplay:10.37,2013-05-02 02:49:00,
2013-05-01 19:50:00,54.5,14.2,30.14,ESE,112,1.1,1.1,20,0.00,CLR,,0.11,WeatherDisplay:10.37,2013-05-02 02:50:00,
2013-05-01 19:52:00,54.3,14.0,30.14,ENE,68,1.1,1.1,20,0.00,CLR,,0.11,WeatherDisplay:10.37,2013-05-02 02:52:00,
2013-05-01 19:54:00,54.1,13.9,30.14,South,180,1.1,4.3,20,0.00,CLR,,0.11,WeatherDisplay:10.37,2013-05-02 02:54:00,
2013-05-01 19:55:00,54.1,13.9,30.14,South,180,1.1,4.3,20,0.00,CLR,,0.11,WeatherDisplay:10.37,2013-05-02 02:55:00,
2013-05-01 19:58:00,53.8,13.6,30.14,SE,135,1.1,3.5,20,0.00,CLR,,0.11,WeatherDisplay:10.37,2013-05-02 02:58:00,
2013-05-01 20:00:00,53.8,13.6,30.14,SE,135,1.1,3.5,20,0.00,CLR,,0.11,WeatherDisplay:10.37,2013-05-02 03:00:00,
2013-05-01 20:03:00,53.6,13.4,30.15,SSE,158,1.3,2.3,20,0.00,CLR,,0.11,WeatherDisplay:10.37,2013-05-02 03:03:00,
2013-05-01 20:05:00,53.4,14.4,30.15,South,180,1.1,1.1,21,0.00,CLR,,0.11,WeatherDisplay:10.37,2013-05-02 03:05:00,
2013-05-01 20:08:00,52.9,13.9,30.15,SSE,158,1.1,2.3,21,0.00,CLR,,0.11,WeatherDisplay:10.37,2013-05-02 03:08:00,
2013-05-01 20:10:00,52.7,13.8,30.15,SSE,158,1.1,0.0,21,0.00,CLR,,0.11,WeatherDisplay:10.37,2013-05-02 03:10:00,
2013-05-01 20:11:00,52.7,13.8,30.15,South,180,0.8,0.0,21,0.00,CLR,,0.11,WeatherDisplay:10.37,2013-05-02 03:11:00,
2013-05-01 20:14:00,52.3,13.5,30.15,SSE,158,0.7,2.3,21,0.00,CLR,,0.11,WeatherDisplay:10.37,2013-05-02 03:14:00,
2013-05-01 20:15:00,52.3,13.5,30.15,SSE,158,0.7,2.3,21,0.00,CLR,,0.11,WeatherDisplay:10.37,2013-05-02 03:15:00,
2013-05-01 20:16:00,52.2,13.3,30.15,SSE,158,0.7,2.3,21,0.00,CLR,,0.11,WeatherDisplay:10.37,2013-05-02 03:16:00,
2013-05-01 20:19:00,52.2,13.3,30.15,NE,45,0.7,2.3,21,0.00,CLR,,0.11,WeatherDisplay:10.37,2013-05-02 03:19:00,
2013-05-01 20:20:00,52.2,13.3,30.15,NE,45,0.7,2.3,21,0.00,CLR,,0.11,WeatherDisplay:10.37,2013-05-02 03:20:00,
2013-05-01 20:21:00,52.2,13.3,30.15,East,90,0.8,2.3,21,0.00,CLR,,0.11,WeatherDisplay:10.37,2013-05-02 03:21:00,
2013-05-01 20:24:00,51.8,13.0,30.15,South,180,1.1,3.5,21,0.00,CLR,,0.11,WeatherDisplay:10.37,2013-05-02 03:24:00,
2013-05-01 20:25:00,51.8,13.0,30.15,South,180,1.1,3.5,21,0.00,CLR,,0.11,WeatherDisplay:10.37,2013-05-02 03:25:00,
2013-05-01 20:26:00,51.6,13.9,30.15,South,180,1.1,3.5,22,0.00,CLR,,0.11,WeatherDisplay:10.37,2013-05-02 03:26:00,
2013-05-01 20:29:00,51.1,13.5,30.15,SSE,158,1.3,2.3,22,0.00,CLR,,0.11,WeatherDisplay:10.37,2013-05-02 03:29:00,
2013-05-01 20:30:00,51.1,13.5,30.15,South,180,1.3,2.3,22,0.00,CLR,,0.11,WeatherDisplay:10.37,2013-05-02 03:30:00,
2013-05-01 20:31:00,51.1,13.5,30.15,South,180,1.3,2.3,22,0.00,CLR,,0.11,WeatherDisplay:10.37,2013-05-02 03:31:00,
2013-05-01 20:35:00,50.9,13.3,30.15,SE,135,0.9,0.0,22,0.00,CLR,,0.11,WeatherDisplay:10.37,2013-05-02 03:35:00,
2013-05-01 20:36:00,50.7,13.2,30.15,SE,135,0.9,1.1,22,0.00,CLR,,0.11,WeatherDisplay:10.37,2013-05-02 03:36:00,
2013-05-01 20:40:00,50.5,13.0,30.15,SSE,160,1.0,2.0,22,0.00,CLR,CLR,0.11,WeatherDisplay:10.37,2013-05-02 03:40:00,
2013-05-01 20:41:00,50.4,12.9,30.15,SSE,158,0.6,2.3,22,0.00,CLR,,0.11,WeatherDisplay:10.37,2013-05-02 03:41:00,
2013-05-01 20:45:00,50.2,12.7,30.16,SSE,158,0.6,2.3,22,0.00,CLR,,0.11,WeatherDisplay:10.37,2013-05-02 03:45:00,
2013-05-01 20:46:00,49.8,12.4,30.16,South,180,0.3,2.3,22,0.00,CLR,,0.11,WeatherDisplay:10.37,2013-05-02 03:46:00,
2013-05-01 20:47:00,49.8,12.4,30.16,South,180,0.3,2.3,22,0.00,CLR,,0.11,WeatherDisplay:10.37,2013-05-02 03:47:00,
2013-05-01 20:50:00,49.6,13.3,30.16,ESE,112,0.3,0.0,23,0.00,CLR,,0.11,WeatherDisplay:10.37,2013-05-02 03:50:00,
2013-05-01 20:51:00,49.6,13.3,30.16,ESE,112,0.3,0.0,23,0.00,CLR,,0.11,WeatherDisplay:10.37,2013-05-02 03:51:00,
2013-05-01 20:52:00,49.5,13.1,30.16,ESE,112,0.3,0.0,23,0.00,CLR,,0.11,WeatherDisplay:10.37,2013-05-02 03:52:00,
2013-05-01 20:55:00,49.1,12.8,30.16,NNW,338,0.2,0.0,23,0.00,CLR,,0.11,WeatherDisplay:10.37,2013-05-02 03:55:00,
2013-05-01 20:56:00,49.1,12.8,30.16,SE,135,0.2,0.0,23,0.00,CLR,,0.11,WeatherDisplay:10.37,2013-05-02 03:56:00,
2013-05-01 20:57:00,49.1,12.8,30.16,SE,135,0.2,0.0,23,0.00,CLR,,0.11,WeatherDisplay:10.37,2013-05-02 03:57:00,
2013-05-01 20:58:00,48.9,12.7,30.16,SE,135,0.2,0.0,23,0.00,CLR,,0.11,WeatherDisplay:10.37,2013-05-02 03:58:00,
2013-05-01 21:00:00,48.9,12.7,30.16,South,180,0.3,1.1,23,0.00,CLR,,0.11,WeatherDisplay:10.37,2013-05-02 04:00:00,
2013-05-01 21:01:00,48.9,12.7,30.16,South,180,0.3,1.1,23,0.00,CLR,,0.11,WeatherDisplay:10.37,2013-05-02 04:01:00,
2013-05-01 21:06:00,48.7,12.5,30.16,SSE,158,0.5,1.1,23,0.00,CLR,,0.11,WeatherDisplay:10.37,2013-05-02 04:06:00,
2013-05-01 21:11:00,48.4,12.2,30.16,SE,135,0.2,0.0,23,0.00,CLR,,0.11,WeatherDisplay:10.37,2013-05-02 04:11:00,
2013-05-01 21:12:00,48.4,12.2,30.16,SE,135,0.2,0.0,23,0.00,CLR,,0.11,WeatherDisplay:10.37,2013-05-02 04:12:00,
2013-05-01 21:16:00,48.0,12.9,30.16,SE,135,0.3,1.1,24,0.00,CLR,,0.11,WeatherDisplay:10.37,2013-05-02 04:16:00,
2013-05-01 21:17:00,48.0,12.9,30.16,SE,135,0.3,1.1,24,0.00,CLR,,0.11,WeatherDisplay:10.37,2013-05-02 04:17:00,
2013-05-01 21:21:00,47.7,12.6,30.16,SSE,158,0.5,2.3,24,0.00,CLR,,0.11,WeatherDisplay:10.37,2013-05-02 04:21:00,
2013-05-01 21:22:00,47.7,12.6,30.16,SSE,158,0.5,2.3,24,0.00,CLR,,0.11,WeatherDisplay:10.37,2013-05-02 04:22:00,
2013-05-01 21:26:00,47.5,12.4,30.17,SSE,158,0.5,0.0,24,0.00,CLR,,0.11,WeatherDisplay:10.37,2013-05-02 04:26:00,
2013-05-01 21:27:00,47.5,12.4,30.17,SSE,158,0.5,0.0,24,0.00,CLR,,0.11,WeatherDisplay:10.37,2013-05-02 04:27:00,
2013-05-01 21:28:00,47.3,12.3,30.17,East,90,0.5,0.0,24,0.00,CLR,,0.11,WeatherDisplay:10.37,2013-05-02 04:28:00,
2013-05-01 21:32:00,47.3,13.2,30.17,ESE,112,0.3,0.0,25,0.00,CLR,,0.11,WeatherDisplay:10.37,2013-05-02 04:32:00,
2013-05-01 21:33:00,47.3,13.2,30.17,ESE,112,0.3,0.0,25,0.00,CLR,,0.11,WeatherDisplay:10.37,2013-05-02 04:33:00,
2013-05-01 21:37:00,47.3,13.2,30.17,SSE,158,0.5,2.3,25,0.00,CLR,,0.11,WeatherDisplay:10.37,2013-05-02 04:37:00,
2013-05-01 21:38:00,47.1,13.0,30.17,ENE,68,0.6,2.3,25,0.00,CLR,,0.11,WeatherDisplay:10.37,2013-05-02 04:38:00,
2013-05-01 21:42:00,46.8,12.7,30.17,SE,135,0.9,3.5,25,0.00,CLR,,0.11,WeatherDisplay:10.37,2013-05-02 04:42:00,
2013-05-01 21:43:00,46.8,12.7,30.17,SE,135,0.9,2.3,25,0.00,CLR,,0.11,WeatherDisplay:10.37,2013-05-02 04:43:00,
2013-05-01 21:45:00,46.8,12.7,30.17,SE,135,0.8,2.3,25,0.00,CLR,,0.11,WeatherDisplay:10.37,2013-05-02 04:45:00,
2013-05-01 21:47:00,46.8,12.7,30.17,SE,135,0.9,2.3,25,0.00,CLR,,0.11,WeatherDisplay:10.37,2013-05-02 04:47:00,
2013-05-01 21:48:00,46.8,12.7,30.17,SE,135,0.9,2.3,25,0.00,CLR,,0.11,WeatherDisplay:10.37,2013-05-02 04:48:00,
2013-05-01 21:49:00,46.8,12.7,30.17,SSE,158,0.9,1.1,25,0.00,CLR,,0.11,WeatherDisplay:10.37,2013-05-02 04:49:00,
2013-05-01 21:50:00,46.6,12.6,30.17,SSE,158,0.9,1.1,25,0.00,CLR,,0.11,WeatherDisplay:10.37,2013-05-02 04:50:00,
2013-05-01 21:52:00,46.4,13.3,30.17,SSE,158,0.8,1.1,26,0.00,CLR,,0.11,WeatherDisplay:10.37,2013-05-02 04:52:00,
2013-05-01 21:53:00,46.4,13.3,30.17,SSE,158,0.8,0.0,26,0.00,CLR,,0.11,WeatherDisplay:10.37,2013-05-02 04:53:00,
2013-05-01 21:54:00,46.4,13.3,30.17,SE,135,0.9,0.0,26,0.00,CLR,,0.11,WeatherDisplay:10.37,2013-05-02 04:54:00,
2013-05-01 21:55:00,46.4,13.3,30.17,SE,135,0.9,2.3,26,0.00,CLR,,0.11,WeatherDisplay:10.37,2013-05-02 04:55:00,
2013-05-01 21:58:00,46.4,13.3,30.17,SE,135,1.0,2.3,26,0.00,CLR,,0.11,WeatherDisplay:10.37,2013-05-02 04:58:00,
2013-05-01 21:59:00,46.4,13.3,30.17,SE,135,1.0,2.3,26,0.00,CLR,,0.11,WeatherDisplay:10.37,2013-05-02 04:59:00,
2013-05-01 22:00:00,46.2,13.2,30.17,ESE,112,1.0,1.1,26,0.00,CLR,,0.11,WeatherDisplay:10.37,2013-05-02 05:00:00,
2013-05-01 22:03:00,46.0,13.0,30.18,SE,135,0.9,1.1,26,0.00,CLR,,0.11,WeatherDisplay:10.37,2013-05-02 05:03:00,
2013-05-01 22:04:00,46.0,13.9,30.18,NE,45,0.8,0.0,27,0.00,CLR,,0.11,WeatherDisplay:10.37,2013-05-02 05:04:00,
2013-05-01 22:05:00,46.0,13.9,30.18,NE,45,0.8,0.0,27,0.00,CLR,,0.11,WeatherDisplay:10.37,2013-05-02 05:05:00,
2013-05-01 22:08:00,46.0,13.9,30.18,SE,135,0.5,0.0,27,0.00,CLR,,0.11,WeatherDisplay:10.37,2013-05-02 05:08:00,
2013-05-01 22:09:00,46.0,13.9,30.18,SE,135,0.3,0.0,27,0.00,CLR,,0.11,WeatherDisplay:10.37,2013-05-02 05:09:00,
2013-05-01 22:10:00,46.0,13.9,30.18,SSE,158,0.2,1.1,27,0.00,CLR,,0.11,WeatherDisplay:10.37,2013-05-02 05:10:00,
2013-05-01 22:13:00,46.0,13.9,30.18,West,270,0.2,1.1,27,0.00,CLR,,0.11,WeatherDisplay:10.37,2013-05-02 05:13:00,
2013-05-01 22:14:00,45.9,13.7,30.18,West,270,0.2,1.1,27,0.00,CLR,,0.11,WeatherDisplay:10.37,2013-05-02 05:14:00,
2013-05-01 22:15:00,45.9,13.7,30.18,East,90,0.3,1.6,27,0.00,CLR,,0.11,WeatherDisplay:10.37,2013-05-02 05:15:00,
2013-05-01 22:18:00,45.7,14.4,30.18,South,180,0.5,1.3,28,0.00,CLR,,0.11,WeatherDisplay:10.37,2013-05-02 05:18:00,
2013-05-01 22:19:00,45.7,14.4,30.18,South,180,0.5,1.1,28,0.00,CLR,,0.11,WeatherDisplay:10.37,2013-05-02 05:19:00,
2013-05-01 22:20:00,45.5,14.2,30.18,South,180,0.5,1.1,28,0.00,CLR,,0.11,WeatherDisplay:10.37,2013-05-02 05:20:00,
2013-05-01 22:24:00,45.5,14.2,30.18,SE,135,0.5,1.1,28,0.00,CLR,,0.11,WeatherDisplay:10.37,2013-05-02 05:24:00,
2013-05-01 22:25:00,45.5,14.2,30.18,SSE,158,0.3,0.0,28,0.00,CLR,,0.11,WeatherDisplay:10.37,2013-05-02 05:25:00,
2013-05-01 22:26:00,45.3,14.1,30.18,SSE,158,0.3,0.0,28,0.00,CLR,,0.11,WeatherDisplay:10.37,2013-05-02 05:26:00,
2013-05-01 22:29:00,45.5,14.2,30.18,East,90,0.2,0.0,28,0.00,CLR,,0.11,WeatherDisplay:10.37,2013-05-02 05:29:00,
2013-05-01 22:30:00,45.5,14.2,30.18,SE,135,0.1,1.1,28,0.00,CLR,,0.11,WeatherDisplay:10.37,2013-05-02 05:30:00,
2013-05-01 22:31:00,45.5,14.2,30.18,SE,135,0.1,1.1,28,0.00,CLR,,0.11,WeatherDisplay:10.37,2013-05-02 05:31:00,
2013-05-01 22:34:00,45.3,14.9,30.18,South,180,0.2,0.0,29,0.00,CLR,,0.11,WeatherDisplay:10.37,2013-05-02 05:34:00,
2013-05-01 22:35:00,45.3,14.9,30.18,South,180,0.2,1.1,29,0.00,CLR,,0.11,WeatherDisplay:10.37,2013-05-02 05:35:00,
2013-05-01 22:36:00,45.3,14.9,30.18,South,180,0.2,1.1,29,0.00,CLR,,0.11,WeatherDisplay:10.37,2013-05-02 05:36:00,
2013-05-01 22:39:00,45.1,15.5,30.18,ESE,112,0.3,0.0,30,0.00,CLR,,0.11,WeatherDisplay:10.37,2013-05-02 05:39:00,
2013-05-01 22:40:00,45.1,15.5,30.18,SE,135,0.3,0.0,30,0.00,CLR,,0.11,WeatherDisplay:10.37,2013-05-02 05:40:00,
2013-05-01 22:41:00,45.1,15.5,30.18,SE,135,0.3,0.0,30,0.00,CLR,,0.11,WeatherDisplay:10.37,2013-05-02 05:41:00,
2013-05-01 22:44:00,45.0,15.3,30.18,South,180,0.2,0.0,30,0.00,CLR,,0.11,WeatherDisplay:10.37,2013-05-02 05:44:00,
2013-05-01 22:45:00,44.8,15.2,30.18,South,180,0.2,0.0,30,0.00,CLR,,0.11,WeatherDisplay:10.37,2013-05-02 05:45:00,
2013-05-01 22:46:00,44.8,15.2,30.18,South,180,0.2,0.0,30,0.00,CLR,,0.11,WeatherDisplay:10.37,2013-05-02 05:46:00,
2013-05-01 22:50:00,44.6,15.0,30.18,NE,45,0.0,0.0,30,0.00,CLR,,0.11,WeatherDisplay:10.37,2013-05-02 05:50:00,
2013-05-01 22:51:00,44.6,15.0,30.18,SE,135,0.0,0.0,30,0.00,CLR,,0.11,WeatherDisplay:10.37,2013-05-02 05:51:00,
2013-05-01 22:55:00,44.6,15.0,30.18,East,90,0.0,0.0,30,0.00,CLR,,0.11,WeatherDisplay:10.37,2013-05-02 05:55:00,
2013-05-01 22:56:00,44.6,15.0,30.18,ENE,68,0.0,0.0,30,0.00,CLR,,0.11,WeatherDisplay:10.37,2013-05-02 05:56:00,
2013-05-01 22:57:00,44.6,15.0,30.18,ENE,68,0.0,0.0,30,0.00,CLR,,0.11,WeatherDisplay:10.37,2013-05-02 05:57:00,
2013-05-01 23:00:00,44.4,15.6,30.18,East,90,0.0,0.0,31,0.00,CLR,,0.11,WeatherDisplay:10.37,2013-05-02 06:00:00,
2013-05-01 23:01:00,44.4,15.6,30.18,NE,45,0.0,0.0,31,0.00,CLR,,0.11,WeatherDisplay:10.37,2013-05-02 06:01:00,
2013-05-01 23:02:00,44.2,15.5,30.18,NE,45,0.0,0.0,31,0.00,CLR,,0.11,WeatherDisplay:10.37,2013-05-02 06:02:00,
2013-05-01 23:06:00,44.2,15.5,30.18,NNE,22,0.0,0.0,31,0.00,CLR,,0.11,WeatherDisplay:10.37,2013-05-02 06:06:00,
2013-05-01 23:07:00,44.2,15.5,30.18,NNE,22,0.0,0.0,31,0.00,CLR,,0.11,WeatherDisplay:10.37,2013-05-02 06:07:00,
2013-05-01 23:11:00,43.7,15.7,30.18,NE,45,0.0,0.0,32,0.00,CLR,,0.11,WeatherDisplay:10.37,2013-05-02 06:11:00,
2013-05-01 23:12:00,43.5,15.6,30.18,ENE,68,0.0,0.0,32,0.00,CLR,,0.11,WeatherDisplay:10.37,2013-05-02 06:12:00,
2013-05-01 23:16:00,43.0,15.8,30.18,NNE,22,0.0,0.0,33,0.00,CLR,,0.11,WeatherDisplay:10.37,2013-05-02 06:16:00,
2013-05-01 23:17:00,43.0,15.8,30.18,NNE,22,0.0,0.0,33,0.00,CLR,,0.11,WeatherDisplay:10.37,2013-05-02 06:17:00,
2013-05-01 23:21:00,42.6,14.8,30.18,NE,45,0.0,0.0,32,0.00,CLR,,0.11,WeatherDisplay:10.37,2013-05-02 06:21:00,
2013-05-01 23:22:00,42.6,15.5,30.18,ENE,68,0.0,0.0,33,0.00,CLR,,0.11,WeatherDisplay:10.37,2013-05-02 06:22:00,
2013-05-01 23:23:00,42.6,15.5,30.19,ENE,68,0.0,0.0,33,0.00,CLR,,0.11,WeatherDisplay:10.37,2013-05-02 06:23:00,
2013-05-01 23:26:00,42.4,15.3,30.19,NW,315,0.0,0.0,33,0.00,CLR,,0.11,WeatherDisplay:10.37,2013-05-02 06:26:00,
2013-05-01 23:27:00,42.4,15.3,30.19,NW,315,0.0,0.0,33,0.00,CLR,,0.11,WeatherDisplay:10.37,2013-05-02 06:27:00,
2013-05-01 23:28:00,42.3,15.9,30.19,ENE,68,0.0,0.0,34,0.00,CLR,,0.11,WeatherDisplay:10.37,2013-05-02 06:28:00,
2013-05-01 23:32:00,42.1,16.4,30.19,NNE,22,0.0,0.0,35,0.00,CLR,,0.11,WeatherDisplay:10.37,2013-05-02 06:32:00,